M I D A S
Marine Information and Data Acquisition System
Tripno 1524 of the Zeeleeuw from 2008-07-23 06:49:50 to 2008-07-23 13:39:48
Back to CruiseResearch ActivitiesStationsMapUnderway DataData graphs

EquipmentUnitsComment
TimeDGPSUTC
LatitudeDGPSDM.mWGS84
LongitudeDGPSDM.mWGS84
TemperatureSBE03/SBE38deg celciusITS90
ConductivitySBE21S/mITS90
SalinitySBE21 Practical Salinity Units
ChlorophylAChelsea fluorimeterg/lCalibrated in Aceton
Missing or incorrect values are displayed as -999
Sea surface data collected by the RV Zeeleeuw from 2008-07-23 06:45:42 to 2008-07-23 13:44:32
                                                                                    Next 1000 lines
Time Latitude Longitude Temperature Conductivity Salinity ChlorophylA
2008-07-23 06:45:53 51°13.621 2°56.048 20.6891 0.022038 0.113499 -1.592577
2008-07-23 06:45:58 51°13.621 2°56.048 20.6662 0.021832 0.11246 -1.592577
2008-07-23 06:46:02 51°13.621 2°56.047 20.6703 0.021729 0.111942 -1.592577
2008-07-23 06:46:07 51°13.621 2°56.045 20.6483 0.021832 0.112458 -1.592577
2008-07-23 06:46:12 51°13.622 2°56.042 20.6146 0.021523 0.110902 -1.592577
2008-07-23 06:46:18 51°13.622 2°56.038 20.6228 0.021729 0.11194 -1.592577
2008-07-23 06:46:22 51°13.623 2°56.034 20.683 0.021729 0.11194 -1.592577
2008-07-23 06:46:27 51°13.624 2°56.028 20.6635 0.021832 0.112458 -1.592577
2008-07-23 06:46:32 51°13.626 2°56.022 20.6738 0.021935 0.112978 -1.592577
2008-07-23 06:46:38 51°13.628 2°56.013 20.6347 0.022038 0.113499 -1.627401
2008-07-23 06:46:43 51°13.629 2°56.006 20.6465 0.021832 0.112462 -1.592577
2008-07-23 06:46:48 51°13.631 2°55.997 20.6747 0.022038 0.113499 -1.592577
2008-07-23 06:46:53 51°13.633 2°55.989 20.684 0.022038 0.113499 -1.592577
2008-07-23 06:46:57 51°13.635 2°55.982 20.6881 0.022038 0.1135 -1.592577
2008-07-23 06:47:03 51°13.638 2°55.97 20.6782 0.022141 0.114021 -1.592577
2008-07-23 06:47:08 51°13.64 2°55.961 20.6834 0.021832 0.112465 -1.592577
2008-07-23 06:47:13 51°13.643 2°55.951 20.6639 0.022038 0.113504 -1.592577
2008-07-23 06:47:17 51°13.645 2°55.943 20.6853 0.021935 0.112985 -1.592577
2008-07-23 06:47:23 51°13.648 2°55.93 20.6826 0.021935 0.112985 -1.592577
2008-07-23 06:47:28 51°13.651 2°55.92 20.6961 0.021935 0.112985 -1.592577
2008-07-23 06:47:33 51°13.655 2°55.91 20.6792 0.021935 0.112985 -1.592577
2008-07-23 06:47:37 51°13.658 2°55.902 20.6931 0.022038 0.113505 -1.592577
2008-07-23 06:47:42 51°13.661 2°55.891 20.7003 0.022244 0.114545 -1.592577
2008-07-23 06:47:47 51°13.665 2°55.881 20.7041 0.022141 0.114026 -1.592577
2008-07-23 06:47:53 51°13.67 2°55.869 20.7206 0.022141 0.114026 -1.592577
2008-07-23 06:47:58 51°13.674 2°55.86 20.7313 0.022347 0.115066 -1.627401
2008-07-23 06:48:02 51°13.676 2°55.853 20.7326 0.022449 0.115587 -1.592577
2008-07-23 06:48:07 51°13.68 2°55.845 20.7147 0.022347 0.115069 -1.592577
2008-07-23 06:48:13 51°13.684 2°55.835 20.7103 0.022449 0.11559 -1.592577
2008-07-23 06:48:18 51°13.687 2°55.827 20.7104 0.022244 0.114552 -1.592577
2008-07-23 06:48:22 51°13.69 2°55.821 20.7062 0.022244 0.114552 -1.592577
2008-07-23 06:48:28 51°13.694 2°55.811 20.7061 0.022244 0.114552 -1.592577
2008-07-23 06:48:32 51°13.696 2°55.804 20.675 0.022347 0.115073 -1.592577
2008-07-23 06:48:38 51°13.7 2°55.794 20.6971 0.022244 0.114553 -1.592577
2008-07-23 06:48:43 51°13.703 2°55.785 20.7018 0.022244 0.114555 -1.592577
2008-07-23 06:48:48 51°13.706 2°55.777 20.7136 0.022347 0.115076 -1.592577
2008-07-23 06:48:52 51°13.708 2°55.77 20.7198 0.022347 0.115076 -1.592577
2008-07-23 06:48:58 51°13.71 2°55.761 20.7222 0.022552 0.116115 -1.592577
2008-07-23 06:49:03 51°13.713 2°55.754 20.723 0.022347 0.115076 -1.592577
2008-07-23 06:49:08 51°13.715 2°55.748 20.7157 0.022552 0.116115 -1.592577
2008-07-23 06:49:12 51°13.716 2°55.743 20.7297 0.022552 0.116115 -1.592577
2008-07-23 06:49:17 51°13.717 2°55.739 20.7412 0.022655 0.116634 -1.592577
2008-07-23 06:49:22 51°13.718 2°55.735 20.739 0.022655 0.116634 -1.592577
2008-07-23 06:49:27 51°13.719 2°55.733 20.748 0.022758 0.117156 -1.592577
2008-07-23 06:49:32 51°13.72 2°55.732 20.7512 0.022964 0.118197 -1.592577
2008-07-23 06:49:38 51°13.721 2°55.732 20.764 0.02317 0.119241 -1.592577
2008-07-23 06:49:42 51°13.721 2°55.734 20.7581 0.02317 0.119245 -1.592577
2008-07-23 06:49:47 51°13.722 2°55.736 20.7192 0.022347 0.115084 -1.592577
2008-07-23 06:49:52 51°13.723 2°55.737 20.6508 0.022347 0.115084 -1.592577
2008-07-23 06:49:58 51°13.723 2°55.739 20.6449 0.022038 0.113524 -1.592577
2008-07-23 06:50:02 51°13.724 2°55.738 20.6737 0.022038 0.113524 -1.592577
2008-07-23 06:50:07 51°13.724 2°55.737 20.6499 0.022347 0.115081 -1.592577
2008-07-23 06:50:13 51°13.723 2°55.734 20.6219 0.021626 0.111445 -1.592577
2008-07-23 06:50:18 51°13.723 2°55.731 20.6653 0.022244 0.11456 -1.592577
2008-07-23 06:50:22 51°13.722 2°55.728 20.6817 0.022244 0.11456 -1.592577
2008-07-23 06:50:27 51°13.72 2°55.724 20.7079 0.022347 0.115079 -1.627401
2008-07-23 06:50:33 51°13.719 2°55.719 20.7078 0.022449 0.115599 -1.627401
2008-07-23 06:50:38 51°13.718 2°55.715 20.71 0.022552 0.116118 -1.592577
2008-07-23 06:50:43 51°13.717 2°55.712 20.7167 0.022861 0.117677 -1.592577
2008-07-23 06:50:48 51°13.716 2°55.71 20.7403 0.023273 0.11976 -1.592577
2008-07-23 06:50:52 51°13.716 2°55.71 20.7506 0.023273 0.11976 -1.592577
2008-07-23 06:50:58 51°13.718 2°55.71 20.7347 0.023581 0.121327 -1.592577
2008-07-23 06:51:02 51°13.719 2°55.711 20.7266 0.022964 0.118202 -1.592577
2008-07-23 06:51:08 51°13.721 2°55.712 20.7352 0.023067 0.118726 -1.592577
2008-07-23 06:51:12 51°13.723 2°55.712 20.7408 0.02317 0.119248 -1.592577
2008-07-23 06:51:17 51°13.725 2°55.713 20.7378 0.02317 0.11925 -1.592577
2008-07-23 06:51:23 51°13.729 2°55.713 20.7375 0.02317 0.11925 -1.592577
2008-07-23 06:51:28 51°13.732 2°55.713 20.7388 0.023376 0.120293 -1.592577
2008-07-23 06:51:33 51°13.736 2°55.712 20.746 0.02317 0.119252 -1.592577
2008-07-23 06:51:37 51°13.739 2°55.711 20.7544 0.023479 0.120815 -1.592577
2008-07-23 06:51:43 51°13.745 2°55.709 20.7639 0.023684 0.121859 -1.592577
2008-07-23 06:51:47 51°13.749 2°55.707 20.7586 0.023067 0.118735 -1.592577
2008-07-23 06:51:52 51°13.755 2°55.703 20.7199 0.023067 0.118735 -1.592577
2008-07-23 06:51:58 51°13.763 2°55.697 20.6825 0.022758 0.117171 -1.592577
2008-07-23 06:52:02 51°13.768 2°55.693 20.652 0.022347 0.115088 -1.592577
2008-07-23 06:52:08 51°13.777 2°55.685 20.632 0.022244 0.114565 -1.592577
2008-07-23 06:52:12 51°13.783 2°55.681 20.6271 0.022038 0.113524 -1.592577
2008-07-23 06:52:17 51°13.791 2°55.675 20.6257 0.022141 0.114039 -1.592577
2008-07-23 06:52:22 51°13.798 2°55.67 20.6303 0.022141 0.114039 -1.592577
2008-07-23 06:52:27 51°13.805 2°55.664 20.6397 0.022141 0.114041 -1.592577
2008-07-23 06:52:32 51°13.811 2°55.658 20.6564 0.022141 0.114041 -1.592577
2008-07-23 06:52:37 51°13.818 2°55.653 20.662 0.022347 0.115081 -1.592577
2008-07-23 06:52:42 51°13.825 2°55.647 20.673 0.022347 0.115083 -1.592577
2008-07-23 06:52:47 51°13.832 2°55.641 20.6734 0.022244 0.114565 -1.592577
2008-07-23 06:52:52 51°13.839 2°55.635 20.676 0.022244 0.114565 -1.592577
2008-07-23 06:52:57 51°13.846 2°55.629 20.6745 0.022244 0.114567 -1.592577
2008-07-23 06:53:02 51°13.853 2°55.623 20.6711 0.022347 0.115088 -1.592577
2008-07-23 06:53:07 51°13.86 2°55.617 20.6787 0.022244 0.114569 -1.592577
2008-07-23 06:53:12 51°13.867 2°55.612 20.6863 0.022347 0.11509 -1.592577
2008-07-23 06:53:17 51°13.875 2°55.606 20.6906 0.022347 0.115091 -1.592577
2008-07-23 06:53:22 51°13.882 2°55.6 20.6877 0.022347 0.115091 -1.592577
2008-07-23 06:53:27 51°13.89 2°55.594 20.6865 0.022244 0.114572 -1.592577
2008-07-23 06:53:32 51°13.898 2°55.589 20.6936 0.022141 0.114055 -1.592577
2008-07-23 06:53:37 51°13.905 2°55.583 20.6932 0.022244 0.114574 -1.592577
2008-07-23 06:53:42 51°13.913 2°55.577 20.6984 0.022244 0.114575 -1.592577
2008-07-23 06:53:46 51°13.919 2°55.572 20.7065 0.022244 0.114575 -1.592577
2008-07-23 06:53:51 51°13.927 2°55.565 20.7027 0.022244 0.114575 -1.592577
2008-07-23 06:53:56 51°13.935 2°55.557 20.6979 0.022244 0.114575 -1.592577
2008-07-23 06:54:02 51°13.945 2°55.549 20.6962 0.022244 0.114577 -1.592577
2008-07-23 06:54:06 51°13.952 2°55.543 20.7029 0.022244 0.114577 -1.592577
2008-07-23 06:54:11 51°13.96 2°55.536 20.7033 0.022244 0.114577 -1.592577
2008-07-23 06:54:16 51°13.969 2°55.528 20.7013 0.022244 0.114577 -1.592577
2008-07-23 06:54:21 51°13.978 2°55.521 20.7005 0.022244 0.114577 -1.592577
2008-07-23 06:54:26 51°13.987 2°55.514 20.6996 0.022038 0.113541 -1.592577
2008-07-23 06:54:31 51°13.996 2°55.506 20.6784 0.022038 0.113541 -1.592577
2008-07-23 06:54:36 51°14.005 2°55.499 20.6775 0.022038 0.113541 -1.592577
2008-07-23 06:54:41 51°14.014 2°55.492 20.6887 0.022141 0.114061 -1.592577
2008-07-23 06:54:46 51°14.022 2°55.485 20.6751 0.021935 0.113023 -1.592577
2008-07-23 06:54:51 51°14.031 2°55.478 20.6862 0.021935 0.113023 -1.592577
2008-07-23 06:54:55 51°14.039 2°55.472 20.6937 0.022141 0.114063 -1.592577
2008-07-23 06:55:00 51°14.047 2°55.465 20.7002 0.022141 0.114063 -1.592577
2008-07-23 06:55:05 51°14.056 2°55.458 20.7137 0.022038 0.113544 -1.592577
2008-07-23 06:55:10 51°14.065 2°55.452 20.7121 0.022038 0.113546 -1.592577
2008-07-23 06:55:15 51°14.074 2°55.445 20.7068 0.022038 0.113546 -1.592577
2008-07-23 06:55:20 51°14.082 2°55.438 20.7058 0.022038 0.113546 -1.592577
2008-07-23 06:55:25 51°14.092 2°55.431 20.71 0.022244 0.114586 -1.592577
2008-07-23 06:55:30 51°14.1 2°55.424 20.7207 0.022141 0.114066 -1.592577
2008-07-23 06:55:35 51°14.109 2°55.417 20.7201 0.022141 0.114066 -1.592577
2008-07-23 06:55:40 51°14.118 2°55.41 20.707 0.022449 0.115626 -1.592577
2008-07-23 06:55:45 51°14.127 2°55.403 20.738 0.022655 0.116667 -1.592577
2008-07-23 06:55:50 51°14.136 2°55.395 20.7387 0.022655 0.116667 -1.592577
2008-07-23 06:55:55 51°14.145 2°55.387 20.7299 0.022347 0.115108 -1.592577
2008-07-23 06:56:00 51°14.154 2°55.379 20.731 0.022347 0.11511 -1.592577
2008-07-23 06:56:05 51°14.164 2°55.37 20.7346 0.022449 0.115629 -1.592577
2008-07-23 06:56:10 51°14.173 2°55.361 20.721 0.022449 0.115631 -1.592577
2008-07-23 06:56:14 51°14.181 2°55.353 20.7137 0.022244 0.114591 -1.592577
2008-07-23 06:56:19 51°14.19 2°55.343 20.7232 0.022244 0.114591 -1.592577
2008-07-23 06:56:24 51°14.2 2°55.333 20.7138 0.022449 0.115631 -1.592577
2008-07-23 06:56:29 51°14.21 2°55.322 20.7281 0.022244 0.114592 -1.592577
2008-07-23 06:56:34 51°14.219 2°55.311 20.7457 0.022552 0.116151 -1.592577
2008-07-23 06:56:39 51°14.229 2°55.299 20.7224 0.022655 0.116674 -1.592577
2008-07-23 06:56:44 51°14.239 2°55.286 20.7383 0.022449 0.115636 -1.592577
2008-07-23 06:56:49 51°14.248 2°55.272 20.722 0.022449 0.115636 -1.592577
2008-07-23 06:56:54 51°14.258 2°55.258 20.725 0.022552 0.116156 -1.592577
2008-07-23 06:56:58 51°14.265 2°55.246 20.7009 0.022552 0.116159 -1.592577
2008-07-23 06:57:03 51°14.274 2°55.23 20.654 0.022552 0.116158 -1.592577
2008-07-23 06:57:09 51°14.286 2°55.209 20.6307 0.021832 0.11252 -1.592577
2008-07-23 06:57:13 51°14.293 2°55.196 20.5958 0.022141 0.114073 -1.592577
2008-07-23 06:57:18 51°14.303 2°55.178 20.7065 0.022141 0.114073 -1.592577
2008-07-23 06:57:23 51°14.313 2°55.16 20.6918 0.023273 0.119797 -1.592577
2008-07-23 06:57:29 51°14.325 2°55.137 20.6553 0.022861 0.117712 -1.592577
2008-07-23 06:57:34 51°14.336 2°55.118 20.64 0.022552 0.116149 -1.592577
2008-07-23 06:57:38 51°14.344 2°55.103 20.6186 0.022655 0.116667 -1.592577
2008-07-23 06:57:43 51°14.354 2°55.083 20.6302 0.022758 0.117185 -1.592577
2008-07-23 06:57:48 51°14.364 2°55.063 20.589 0.022758 0.117185 -1.592577
2008-07-23 06:57:53 51°14.374 2°55.043 20.6145 0.023376 0.120311 -1.592577
2008-07-23 06:57:58 51°14.384 2°55.022 20.6371 0.023376 0.120307 -1.592577
2008-07-23 06:58:03 51°14.394 2°55 20.6411 0.022449 0.115617 -1.592577
2008-07-23 06:58:08 51°14.403 2°54.978 20.6331 0.022347 0.115091 -1.592577
2008-07-23 06:58:14 51°14.414 2°54.952 20.6291 0.02317 0.119252 -1.592577
2008-07-23 06:58:18 51°14.421 2°54.934 20.6546 0.02317 0.119252 -1.592577
2008-07-23 06:58:23 51°14.43 2°54.911 20.6722 0.023273 0.119776 -1.592577
2008-07-23 06:58:29 51°14.44 2°54.882 20.6183 0.023376 0.1203 -1.592577
2008-07-23 06:58:34 51°14.448 2°54.858 20.6239 0.022655 0.116664 -1.592577
2008-07-23 06:58:38 51°14.454 2°54.839 20.6374 0.022552 0.116142 -1.592577
2008-07-23 06:58:43 51°14.462 2°54.815 20.6481 0.022758 0.117178 -1.592577
2008-07-23 06:58:48 51°14.47 2°54.79 20.6536 0.022758 0.117178 -1.592577
2008-07-23 06:58:53 51°14.477 2°54.765 20.6446 0.022964 0.11822 -1.592577
2008-07-23 06:58:58 51°14.484 2°54.74 20.634 0.023067 0.118751 -1.592577
2008-07-23 06:59:03 51°14.491 2°54.714 20.6105 0.022244 0.114599 -1.592577
2008-07-23 06:59:09 51°14.499 2°54.684 20.6129 0.021832 0.112526 -1.592577
2008-07-23 06:59:14 51°14.506 2°54.658 20.5656 0.021935 0.113047 -1.592577
2008-07-23 06:59:18 51°14.513 2°54.638 20.5662 0.021935 0.113047 -1.592577
2008-07-23 06:59:23 51°14.52 2°54.613 20.6155 0.023581 0.121383 -1.592577
2008-07-23 06:59:29 51°14.53 2°54.584 20.5917 0.022758 0.117218 -1.592577
2008-07-23 06:59:33 51°14.537 2°54.564 20.5923 0.024919 0.128172 -1.592577
2008-07-23 06:59:38 51°14.546 2°54.54 20.5871 0.025125 0.129217 -1.592577
2008-07-23 06:59:43 51°14.554 2°54.516 20.608 0.024713 0.127109 -1.592577
2008-07-23 06:59:48 51°14.563 2°54.492 20.5829 0.024713 0.127109 -1.592577
2008-07-23 06:59:54 51°14.574 2°54.463 20.6177 0.024096 0.123962 -1.592577
2008-07-23 06:59:58 51°14.581 2°54.444 20.5905 0.023787 0.122396 -1.592577
2008-07-23 07:00:03 51°14.589 2°54.42 20.5847 0.024816 0.127622 -1.592577
2008-07-23 07:00:08 51°14.598 2°54.395 20.6071 0.024713 0.127102 -1.592577
2008-07-23 07:00:14 51°14.608 2°54.366 20.6108 0.024405 0.125533 -1.592577
2008-07-23 07:00:18 51°14.615 2°54.346 20.5997 0.024405 0.125533 -1.592577
2008-07-23 07:00:23 51°14.623 2°54.321 20.604 0.023684 0.12188 -1.592577
2008-07-23 07:00:29 51°14.632 2°54.291 20.6129 0.023993 0.123457 -1.592577
2008-07-23 07:00:34 51°14.639 2°54.266 20.602 0.024508 0.126089 -1.592577
2008-07-23 07:00:38 51°14.645 2°54.245 20.56 0.023581 0.121399 -1.592577
2008-07-23 07:00:43 51°14.652 2°54.22 20.5673 0.023581 0.121407 -1.592577
2008-07-23 07:00:49 51°14.662 2°54.189 20.5996 0.023581 0.121407 -1.592577
2008-07-23 07:00:53 51°14.668 2°54.17 20.5757 0.023273 0.119852 -1.592577
2008-07-23 07:00:58 51°14.676 2°54.145 20.5854 0.023787 0.122471 -1.592577
2008-07-23 07:01:03 51°14.684 2°54.12 20.6009 0.02317 0.119355 -1.592577
2008-07-23 07:01:08 51°14.692 2°54.095 20.5971 0.022861 0.117793 -1.592577
2008-07-23 07:01:13 51°14.7 2°54.07 20.6053 0.024713 0.12719 -1.592577
2008-07-23 07:01:18 51°14.709 2°54.045 20.5714 0.024713 0.12719 -1.592577
2008-07-23 07:01:23 51°14.717 2°54.021 20.6004 0.024405 0.125626 -1.592577
2008-07-23 07:01:28 51°14.725 2°53.996 20.6054 0.024096 0.124053 -1.592577
2008-07-23 07:01:33 51°14.733 2°53.972 20.6119 0.02317 0.119356 -1.592577
2008-07-23 07:01:38 51°14.742 2°53.948 20.5969 0.024405 0.125628 -1.592577
2008-07-23 07:01:43 51°14.75 2°53.924 20.5743 0.024919 0.128272 -1.592577
2008-07-23 07:01:48 51°14.758 2°53.899 20.5833 0.024919 0.128272 -1.592577
2008-07-23 07:01:53 51°14.766 2°53.875 20.5627 0.024405 0.125664 -1.592577
2008-07-23 07:01:58 51°14.773 2°53.85 20.5867 0.023993 0.123554 -1.592577
2008-07-23 07:02:03 51°14.781 2°53.826 20.5675 0.02389 0.123021 -1.592577
2008-07-23 07:02:08 51°14.788 2°53.801 20.5499 0.025331 0.130335 -1.592577
2008-07-23 07:02:13 51°14.796 2°53.777 20.5818 0.023581 0.12145 -1.592577
2008-07-23 07:02:18 51°14.804 2°53.753 20.5845 0.023581 0.12145 -1.592577
2008-07-23 07:02:23 51°14.812 2°53.729 20.5884 0.022964 0.118341 -1.592577
2008-07-23 07:02:28 51°14.82 2°53.705 20.5989 0.024096 0.124096 -1.592577
2008-07-23 07:02:34 51°14.829 2°53.676 20.598 0.02389 0.123058 -1.592577
2008-07-23 07:02:38 51°14.836 2°53.657 20.5866 0.027183 0.139864 -1.592577
2008-07-23 07:02:43 51°14.844 2°53.633 20.6357 0.023581 0.121507 -1.592577
2008-07-23 07:02:48 51°14.851 2°53.608 20.6159 0.023581 0.121507 -1.592577
2008-07-23 07:02:53 51°14.857 2°53.583 20.631 0.023479 0.120972 -1.592577
2008-07-23 07:02:58 51°14.863 2°53.557 20.6146 0.02317 0.119403 -1.592577
2008-07-23 07:03:04 51°14.869 2°53.527 20.6146 0.022861 0.117838 -1.592577
2008-07-23 07:03:09 51°14.874 2°53.501 20.5902 0.02317 0.119412 -1.592577
2008-07-23 07:03:14 51°14.879 2°53.475 20.5746 0.023479 0.120994 -1.592577
2008-07-23 07:03:19 51°14.883 2°53.448 20.6176 0.023479 0.120994 -1.592577
2008-07-23 07:03:24 51°14.888 2°53.422 20.6123 0.022758 0.117356 -1.592577
2008-07-23 07:03:28 51°14.891 2°53.401 20.6141 0.022964 0.118394 -1.592577
2008-07-23 07:03:33 51°14.895 2°53.374 20.6088 0.022758 0.117358 -1.592577
2008-07-23 07:03:39 51°14.9 2°53.342 20.6146 0.022655 0.116839 -1.592577
2008-07-23 07:03:43 51°14.903 2°53.321 20.6113 0.022552 0.11633 -1.592577
2008-07-23 07:03:47 51°14.907 2°53.3 20.605 0.022552 0.11633 -1.592577
2008-07-23 07:03:54 51°14.913 2°53.262 20.6013 0.022655 0.116858 -1.592577
2008-07-23 07:03:59 51°14.917 2°53.235 20.5916 0.022758 0.117389 -1.592577
2008-07-23 07:04:03 51°14.92 2°53.214 20.5934 0.023067 0.118954 -1.592577
2008-07-23 07:04:08 51°14.924 2°53.187 20.592 0.022758 0.117394 -1.592577
2008-07-23 07:04:13 51°14.929 2°53.16 20.6183 0.022964 0.118438 -1.592577
2008-07-23 07:04:19 51°14.934 2°53.128 20.612 0.022964 0.118438 -1.592577
2008-07-23 07:04:23 51°14.937 2°53.106 20.5984 0.022552 0.116359 -1.592577
2008-07-23 07:04:27 51°14.94 2°53.085 20.6065 0.022758 0.117407 -1.592577
2008-07-23 07:04:33 51°14.945 2°53.052 20.5787 0.02245 0.115844 -1.592577
2008-07-23 07:04:39 51°14.949 2°53.02 20.6132 0.022758 0.117407 -1.592577
2008-07-23 07:04:43 51°14.952 2°52.998 20.6074 0.024096 0.124214 -1.592577
2008-07-23 07:04:47 51°14.955 2°52.976 20.601 0.024096 0.124214 -1.592577
2008-07-23 07:04:54 51°14.96 2°52.938 20.6094 0.02317 0.119526 -1.592577
2008-07-23 07:04:59 51°14.964 2°52.911 20.5921 0.023067 0.118999 -1.592577
2008-07-23 07:05:03 51°14.967 2°52.89 20.6162 0.02245 0.115865 -1.592577
2008-07-23 07:05:08 51°14.972 2°52.863 20.6029 0.022964 0.118472 -1.592577
2008-07-23 07:05:13 51°14.976 2°52.836 20.6079 0.022655 0.116908 -1.592577
2008-07-23 07:05:19 51°14.981 2°52.804 20.6146 0.022655 0.116908 -1.592577
2008-07-23 07:05:23 51°14.984 2°52.782 20.6079 0.022861 0.117951 -1.592577
2008-07-23 07:05:28 51°14.988 2°52.755 20.6035 0.023067 0.118993 -1.592577
2008-07-23 07:05:33 51°14.993 2°52.728 20.618 0.022861 0.117959 -1.592577
2008-07-23 07:05:38 51°14.997 2°52.701 20.6052 0.023479 0.121101 -1.592577
2008-07-23 07:05:43 51°15.001 2°52.674 20.5963 0.02317 0.119549 -1.592577
2008-07-23 07:05:49 51°15.005 2°52.641 20.5979 0.02317 0.119549 -1.592577
2008-07-23 07:05:53 51°15.008 2°52.62 20.6127 0.022964 0.118514 -1.592577
2008-07-23 07:05:59 51°15.013 2°52.587 20.6257 0.02245 0.115911 -1.592577
2008-07-23 07:06:03 51°15.015 2°52.565 20.6192 0.022964 0.118521 -1.592577
2008-07-23 07:06:08 51°15.018 2°52.538 20.6381 0.02245 0.115913 -1.592577
2008-07-23 07:06:13 51°15.022 2°52.511 20.6244 0.022964 0.118525 -1.592577
2008-07-23 07:06:18 51°15.024 2°52.483 20.6247 0.022964 0.118525 -1.592577
2008-07-23 07:06:23 51°15.027 2°52.455 20.6143 0.022347 0.11539 -1.592577
2008-07-23 07:06:29 51°15.029 2°52.422 20.6264 0.022655 0.116948 -1.592577
2008-07-23 07:06:34 51°15.032 2°52.395 20.6147 0.022552 0.116424 -1.592577
2008-07-23 07:06:39 51°15.034 2°52.367 20.6147 0.022964 0.118518 -1.592577
2008-07-23 07:06:43 51°15.036 2°52.345 20.6015 0.022655 0.11695 -1.592577
2008-07-23 07:06:48 51°15.038 2°52.317 20.612 0.022655 0.11695 -1.592577
2008-07-23 07:06:53 51°15.04 2°52.29 20.6219 0.022758 0.117464 -1.592577
2008-07-23 07:06:59 51°15.043 2°52.256 20.6099 0.022347 0.115371 -1.592577
2008-07-23 07:07:03 51°15.045 2°52.234 20.634 0.022038 0.113799 -1.592577
2008-07-23 07:07:08 51°15.046 2°52.206 20.6322 0.022964 0.11849 -1.592577
2008-07-23 07:07:14 51°15.049 2°52.173 20.6281 0.023581 0.121634 -1.592577
2008-07-23 07:07:19 51°15.051 2°52.145 20.6398 0.023581 0.121634 -1.592577
2008-07-23 07:07:23 51°15.053 2°52.122 20.6227 0.023479 0.121115 -1.592577
2008-07-23 07:07:28 51°15.055 2°52.094 20.5975 0.023684 0.122173 -1.627401
2008-07-23 07:07:33 51°15.058 2°52.067 20.6041 0.023581 0.121656 -1.592577
2008-07-23 07:07:39 51°15.06 2°52.033 20.6333 0.02389 0.123231 -1.592577
2008-07-23 07:07:43 51°15.063 2°52.011 20.5971 0.02317 0.119554 -1.592577
2008-07-23 07:07:49 51°15.065 2°51.977 20.6302 0.02317 0.119554 -1.592577
2008-07-23 07:07:53 51°15.067 2°51.955 20.5776 0.022038 0.113793 -1.592577
2008-07-23 07:07:59 51°15.07 2°51.921 20.6302 0.023067 0.118995 -1.627401
2008-07-23 07:08:03 51°15.073 2°51.899 20.5772 0.022244 0.114815 -1.592577
2008-07-23 07:08:07 51°15.074 2°51.876 20.6086 0.022861 0.117951 -1.592577
2008-07-23 07:08:14 51°15.08 2°51.838 20.6111 0.022552 0.116403 -1.592577
2008-07-23 07:08:19 51°15.082 2°51.81 20.6374 0.022552 0.116403 -1.592577
2008-07-23 07:08:23 51°15.085 2°51.788 20.6241 0.022347 0.115366 -1.592577
2008-07-23 07:08:29 51°15.089 2°51.754 20.634 0.022347 0.115378 -1.592577
2008-07-23 07:08:33 51°15.091 2°51.732 20.6331 0.021523 0.111212 -1.592577
2008-07-23 07:08:39 51°15.095 2°51.698 20.6289 0.02142 0.110691 -1.592577
2008-07-23 07:08:43 51°15.096 2°51.676 20.6252 0.021318 0.110176 -1.592577
2008-07-23 07:08:47 51°15.099 2°51.654 20.6115 0.021318 0.110176 -1.592577
2008-07-23 07:08:53 51°15.102 2°51.62 20.5963 0.021215 0.109663 -1.592577
2008-07-23 07:08:59 51°15.105 2°51.587 20.6013 0.021009 0.108623 -1.627401
2008-07-23 07:09:03 51°15.108 2°51.565 20.6026 0.021832 0.112791 -1.592577
2008-07-23 07:09:08 51°15.113 2°51.538 20.6026 0.022141 0.114359 -1.627401
2008-07-23 07:09:14 51°15.118 2°51.505 20.628 0.022347 0.115407 -1.592577
2008-07-23 07:09:19 51°15.124 2°51.479 20.6188 0.022347 0.115407 -1.592577
2008-07-23 07:09:23 51°15.128 2°51.458 20.618 0.022861 0.118026 -1.592577
2008-07-23 07:09:27 51°15.134 2°51.437 20.5983 0.022861 0.118026 -1.592577
2008-07-23 07:09:33 51°15.142 2°51.406 20.6152 0.023067 0.119082 -1.592577
2008-07-23 07:09:39 51°15.152 2°51.377 20.6016 0.023581 0.121714 -1.592577
2008-07-23 07:09:43 51°15.159 2°51.357 20.6168 0.022655 0.117018 -1.592577
2008-07-23 07:09:47 51°15.166 2°51.339 20.5937 0.022655 0.117018 -1.592577
2008-07-23 07:09:53 51°15.177 2°51.31 20.6219 0.023684 0.122254 -1.592577
2008-07-23 07:09:58 51°15.187 2°51.287 20.5927 0.023684 0.122261 -1.592577
2008-07-23 07:10:03 51°15.197 2°51.264 20.618 0.023479 0.121206 -1.592577
2008-07-23 07:10:08 51°15.207 2°51.241 20.6031 0.023273 0.120148 -1.592577
2008-07-23 07:10:13 51°15.218 2°51.22 20.6273 0.023273 0.120134 -1.592577
2008-07-23 07:10:18 51°15.23 2°51.199 20.6272 0.023273 0.120134 -1.592577
2008-07-23 07:10:23 51°15.242 2°51.179 20.6364 0.023273 0.120129 -1.592577
2008-07-23 07:10:28 51°15.255 2°51.16 20.5995 0.024405 0.125901 -1.592577
2008-07-23 07:10:34 51°15.27 2°51.138 20.6271 0.024919 0.128541 -1.592577
2008-07-23 07:10:39 51°15.283 2°51.119 20.6038 0.023787 0.122768 -1.592577
2008-07-23 07:10:43 51°15.294 2°51.105 20.6037 0.02389 0.12327 -1.592577
2008-07-23 07:10:49 51°15.309 2°51.086 20.617 0.02389 0.12327 -1.592577
2008-07-23 07:10:53 51°15.319 2°51.075 20.6152 0.024405 0.12587 -1.592577
2008-07-23 07:10:59 51°15.333 2°51.059 20.6359 0.024919 0.128507 -1.592577
2008-07-23 07:11:03 51°15.343 2°51.05 20.6397 0.02636 0.135897 -1.592577
2008-07-23 07:11:08 51°15.354 2°51.039 20.6478 0.026257 0.135391 -1.592577
2008-07-23 07:11:14 51°15.367 2°51.028 20.6581 0.027698 0.14277 -1.592577
2008-07-23 07:11:19 51°15.377 2°51.018 20.6582 0.027698 0.14277 -1.592577
2008-07-23 07:11:23 51°15.385 2°51.011 20.6664 0.028521 0.147021 -1.592577
2008-07-23 07:11:28 51°15.395 2°51.003 20.6457 0.029138 0.150209 -1.592577
2008-07-23 07:11:34 51°15.406 2°50.993 20.6665 0.02883 0.148612 -1.592577
2008-07-23 07:11:39 51°15.416 2°50.985 20.6765 0.028624 0.147552 -1.592577
2008-07-23 07:11:43 51°15.423 2°50.979 20.6566 0.030991 0.159764 -1.592577
2008-07-23 07:11:48 51°15.432 2°50.971 20.6661 0.030991 0.159764 -1.592577
2008-07-23 07:11:53 51°15.441 2°50.963 20.658 0.029035 0.149642 -1.592577
2008-07-23 07:11:59 51°15.451 2°50.954 20.6522 0.028727 0.148012 -1.592577
2008-07-23 07:12:03 51°15.458 2°50.948 20.6693 0.027389 0.141126 -1.592577
2008-07-23 07:12:08 51°15.466 2°50.94 20.6513 0.028315 0.145879 -1.592577
2008-07-23 07:12:13 51°15.474 2°50.932 20.6489 0.026977 0.13904 -1.592577
2008-07-23 07:12:19 51°15.484 2°50.922 20.6625 0.026977 0.13904 -1.592577
2008-07-23 07:12:23 51°15.49 2°50.916 20.6647 0.028315 0.145919 -1.592577
2008-07-23 07:12:28 51°15.498 2°50.909 20.6665 0.028006 0.144395 -1.592577
2008-07-23 07:12:33 51°15.506 2°50.901 20.6606 0.02708 0.139662 -1.592577
2008-07-23 07:12:38 51°15.514 2°50.894 20.6474 0.028109 0.144921 -1.592577
2008-07-23 07:12:43 51°15.522 2°50.887 20.6288 0.028418 0.146522 -1.592577
2008-07-23 07:12:49 51°15.531 2°50.878 20.6403 0.028418 0.146522 -1.592577
2008-07-23 07:12:53 51°15.538 2°50.872 20.6432 0.026977 0.139149 -1.592577
2008-07-23 07:12:59 51°15.547 2°50.863 20.6633 0.027183 0.140197 -1.592577
2008-07-23 07:13:03 51°15.553 2°50.857 20.6659 0.026977 0.139115 -1.592577
2008-07-23 07:13:08 51°15.56 2°50.849 20.6606 0.027286 0.140666 -1.592577
2008-07-23 07:13:14 51°15.569 2°50.84 20.6729 0.02708 0.139617 -1.592577
2008-07-23 07:13:19 51°15.577 2°50.833 20.667 0.02708 0.139617 -1.592577
2008-07-23 07:13:23 51°15.583 2°50.826 20.6748 0.027595 0.142271 -1.592577
2008-07-23 07:13:28 51°15.59 2°50.819 20.6561 0.026566 0.137006 -1.592577
2008-07-23 07:13:34 51°15.599 2°50.809 20.66 0.027698 0.142825 -1.592577
2008-07-23 07:13:39 51°15.606 2°50.802 20.6618 0.02883 0.148691 -1.592577
2008-07-23 07:13:43 51°15.612 2°50.796 20.6775 0.028212 0.145542 -1.592577
2008-07-23 07:13:48 51°15.62 2°50.788 20.6812 0.028212 0.145542 -1.592577
2008-07-23 07:13:53 51°15.627 2°50.78 20.6803 0.029344 0.151373 -1.592577
2008-07-23 07:13:59 51°15.636 2°50.771 20.6786 0.02883 0.148751 -1.592577
2008-07-23 07:14:03 51°15.642 2°50.765 20.6763 0.02708 0.139748 -1.592577
2008-07-23 07:14:08 51°15.649 2°50.757 20.6677 0.02636 0.136045 -1.592577
2008-07-23 07:14:13 51°15.656 2°50.749 20.6877 0.028727 0.148217 -1.592577
2008-07-23 07:14:19 51°15.665 2°50.74 20.6711 0.028727 0.148217 -1.592577
2008-07-23 07:14:23 51°15.671 2°50.734 20.6723 0.028418 0.146649 -1.592577
2008-07-23 07:14:28 51°15.678 2°50.727 20.6713 0.027183 0.140286 -1.592577
2008-07-23 07:14:33 51°15.686 2°50.719 20.6774 0.027183 0.14026 -1.592577
2008-07-23 07:14:38 51°15.693 2°50.712 20.6827 0.026977 0.139186 -1.592577
2008-07-23 07:14:43 51°15.7 2°50.704 20.6869 0.027801 0.143421 -1.592577
2008-07-23 07:14:49 51°15.709 2°50.695 20.6916 0.027801 0.143421 -1.592577
2008-07-23 07:14:53 51°15.715 2°50.689 20.6625 0.028933 0.149315 -1.592577
2008-07-23 07:14:59 51°15.725 2°50.678 20.6677 0.028933 0.149387 -1.592577
2008-07-23 07:15:04 51°15.734 2°50.669 20.6575 0.029859 0.154236 -1.592577
2008-07-23 07:15:08 51°15.742 2°50.661 20.6874 0.027492 0.142001 -1.592577
2008-07-23 07:15:14 51°15.754 2°50.649 20.6845 0.026977 0.139331 -1.592577
2008-07-23 07:15:19 51°15.765 2°50.638 20.6706 0.026977 0.139331 -1.592577
2008-07-23 07:15:23 51°15.774 2°50.629 20.6541 0.025228 0.130317 -1.592577
2008-07-23 07:15:28 51°15.786 2°50.617 20.6489 0.026051 0.134494 -1.592577
2008-07-23 07:15:33 51°15.798 2°50.606 20.6591 0.026257 0.135541 -1.592577
2008-07-23 07:15:39 51°15.814 2°50.59 20.6755 0.02564 0.132404 -1.592577
2008-07-23 07:15:43 51°15.824 2°50.58 20.6813 0.024096 0.124499 -1.592577
2008-07-23 07:15:47 51°15.835 2°50.569 20.6802 0.024096 0.124499 -1.592577
2008-07-23 07:15:53 51°15.852 2°50.553 20.6631 0.024405 0.126065 -1.592577
2008-07-23 07:15:59 51°15.869 2°50.537 20.6429 0.024508 0.126599 -1.592577
2008-07-23 07:16:03 51°15.88 2°50.526 20.6601 0.024919 0.128726 -1.592577
2008-07-23 07:16:08 51°15.894 2°50.513 20.6759 0.023273 0.120314 -1.592577
2008-07-23 07:16:14 51°15.912 2°50.496 20.6598 0.023067 0.119255 -1.592577
2008-07-23 07:16:19 51°15.926 2°50.482 20.6598 0.023067 0.119255 -1.592577
2008-07-23 07:16:23 51°15.938 2°50.471 20.6752 0.023479 0.121346 -1.592577
2008-07-23 07:16:28 51°15.952 2°50.457 20.6738 0.023273 0.120309 -1.592577
2008-07-23 07:16:33 51°15.966 2°50.443 20.6853 0.022655 0.117177 -1.592577
2008-07-23 07:16:39 51°15.984 2°50.426 20.6869 0.02317 0.119796 -1.592577
2008-07-23 07:16:43 51°15.995 2°50.415 20.6867 0.024611 0.127178 -1.592577
2008-07-23 07:16:49 51°16.012 2°50.399 20.6783 0.024611 0.127178 -1.592577
2008-07-23 07:16:53 51°16.024 2°50.388 20.6719 0.024405 0.126156 -1.592577
2008-07-23 07:16:59 51°16.041 2°50.371 20.6634 0.023479 0.121443 -1.592577
2008-07-23 07:17:04 51°16.056 2°50.357 20.6798 0.02389 0.123544 -1.592577
2008-07-23 07:17:08 51°16.068 2°50.346 20.6898 0.023581 0.121982 -1.592577
2008-07-23 07:17:14 51°16.085 2°50.33 20.6849 0.022655 0.117256 -1.592577
2008-07-23 07:17:19 51°16.1 2°50.316 20.6743 0.022655 0.117256 -1.592577
2008-07-23 07:17:23 51°16.111 2°50.304 20.6686 0.022861 0.118279 -1.592577
2008-07-23 07:17:28 51°16.126 2°50.29 20.6758 0.022964 0.118797 -1.592577
2008-07-23 07:17:33 51°16.14 2°50.275 20.6633 0.024096 0.124559 -1.592577
2008-07-23 07:17:39 51°16.157 2°50.258 20.6815 0.024199 0.125118 -1.592577
2008-07-23 07:17:43 51°16.169 2°50.246 20.6954 0.024508 0.126693 -1.592577
2008-07-23 07:17:49 51°16.186 2°50.229 20.692 0.024508 0.126693 -1.592577
2008-07-23 07:17:53 51°16.198 2°50.217 20.6883 0.023993 0.124081 -1.592577
2008-07-23 07:17:59 51°16.215 2°50.2 20.6753 0.022964 0.118843 -1.592577
2008-07-23 07:18:03 51°16.227 2°50.188 20.683 0.024405 0.126242 -1.592577
2008-07-23 07:18:08 51°16.242 2°50.174 20.6792 0.023479 0.12154 -1.592577
2008-07-23 07:18:14 51°16.259 2°50.156 20.6646 0.023273 0.120464 -1.592577
2008-07-23 07:18:19 51°16.273 2°50.142 20.6812 0.023273 0.120464 -1.592577
2008-07-23 07:18:23 51°16.285 2°50.13 20.6864 0.022964 0.118875 -1.592577
2008-07-23 07:18:28 51°16.299 2°50.116 20.6815 0.022347 0.115722 -1.592577
2008-07-23 07:18:33 51°16.314 2°50.101 20.6938 0.022655 0.11728 -1.592577
2008-07-23 07:18:39 51°16.332 2°50.084 20.6714 0.023993 0.124089 -1.592577
2008-07-23 07:18:43 51°16.343 2°50.072 20.6937 0.023787 0.123062 -1.592577
2008-07-23 07:18:49 51°16.361 2°50.055 20.7068 0.023787 0.123062 -1.592577
2008-07-23 07:18:53 51°16.373 2°50.044 20.6878 0.025022 0.129381 -1.592577
2008-07-23 07:18:59 51°16.39 2°50.028 20.6968 0.02389 0.123592 -1.627401
2008-07-23 07:19:03 51°16.402 2°50.016 20.6968 0.023273 0.120428 -1.592577
2008-07-23 07:19:08 51°16.416 2°50.003 20.6976 0.024096 0.124621 -1.592577
2008-07-23 07:19:13 51°16.431 2°49.989 20.7008 0.023376 0.120969 -1.592577
2008-07-23 07:19:19 51°16.449 2°49.971 20.6991 0.023376 0.120969 -1.592577
2008-07-23 07:19:23 51°16.46 2°49.959 20.6808 0.022964 0.11888 -1.592577
2008-07-23 07:19:28 51°16.474 2°49.944 20.6815 0.022861 0.118355 -1.592577
2008-07-23 07:19:33 51°16.488 2°49.929 20.6923 0.025434 0.131535 -1.592577
2008-07-23 07:19:39 51°16.505 2°49.911 20.6933 0.023376 0.121005 -1.592577
2008-07-23 07:19:44 51°16.52 2°49.896 20.6889 0.02317 0.11993 -1.592577
2008-07-23 07:19:49 51°16.534 2°49.88 20.6894 0.02317 0.11993 -1.592577
2008-07-23 07:19:53 51°16.545 2°49.868 20.6755 0.023684 0.122532 -1.592577
2008-07-23 07:19:59 51°16.562 2°49.85 20.6864 0.024199 0.125146 -1.592577
2008-07-23 07:20:03 51°16.573 2°49.837 20.6904 0.023376 0.120959 -1.592577
2008-07-23 07:20:08 51°16.588 2°49.822 20.7094 0.022244 0.115186 -1.592577
2008-07-23 07:20:14 51°16.605 2°49.805 20.71 0.024302 0.125669 -1.592577
2008-07-23 07:20:19 51°16.619 2°49.79 20.6993 0.024302 0.125669 -1.592577
2008-07-23 07:20:23 51°16.631 2°49.779 20.7068 0.023684 0.122569 -1.592577
2008-07-23 07:20:28 51°16.645 2°49.763 20.7017 0.022861 0.118378 -1.592577
2008-07-23 07:20:34 51°16.662 2°49.746 20.6842 0.023787 0.12311 -1.592577
2008-07-23 07:20:39 51°16.677 2°49.732 20.7 0.023684 0.122621 -1.592577
2008-07-23 07:20:43 51°16.689 2°49.721 20.6866 0.025434 0.131597 -1.592577
2008-07-23 07:20:49 51°16.706 2°49.704 20.6914 0.025434 0.131597 -1.592577
2008-07-23 07:20:53 51°16.718 2°49.693 20.7085 0.024096 0.12477 -1.592577
2008-07-23 07:20:59 51°16.736 2°49.676 20.7203 0.024919 0.129093 -1.592577
2008-07-23 07:21:03 51°16.747 2°49.665 20.7093 0.024611 0.127569 -1.592577
2008-07-23 07:21:08 51°16.761 2°49.65 20.7122 0.023581 0.122307 -1.592577
2008-07-23 07:21:13 51°16.776 2°49.636 20.7086 0.02389 0.123855 -1.592577
2008-07-23 07:21:19 51°16.793 2°49.618 20.7174 0.02389 0.123855 -1.592577
2008-07-23 07:21:23 51°16.804 2°49.607 20.7163 0.02317 0.120125 -1.592577
2008-07-23 07:21:28 51°16.819 2°49.592 20.722 0.023993 0.124286 -1.592577
2008-07-23 07:21:33 51°16.833 2°49.578 20.7216 0.022964 0.118993 -1.592577
2008-07-23 07:21:39 51°16.85 2°49.56 20.7304 0.023993 0.124222 -1.592577
2008-07-23 07:21:44 51°16.864 2°49.546 20.6965 0.025228 0.130549 -1.592577
2008-07-23 07:21:49 51°16.878 2°49.531 20.7111 0.025228 0.130549 -1.592577
2008-07-23 07:21:53 51°16.89 2°49.52 20.7162 0.023993 0.12422 -1.592577
2008-07-23 07:21:59 51°16.907 2°49.503 20.737 0.025434 0.131601 -1.592577
2008-07-23 07:22:03 51°16.919 2°49.493 20.7267 0.023479 0.121586 -1.592577
2008-07-23 07:22:08 51°16.933 2°49.478 20.7292 0.023067 0.119469 -1.592577
2008-07-23 07:22:14 51°16.95 2°49.462 20.7257 0.024096 0.124701 -1.592577
2008-07-23 07:22:19 51°16.965 2°49.448 20.705 0.024096 0.124701 -1.592577
2008-07-23 07:22:23 51°16.976 2°49.438 20.7073 0.023684 0.122623 -1.592577
2008-07-23 07:22:29 51°16.994 2°49.421 20.7196 0.023479 0.121575 -1.592577
2008-07-23 07:22:34 51°17.009 2°49.407 20.7245 0.024096 0.124731 -1.592577
2008-07-23 07:22:39 51°17.023 2°49.393 20.7307 0.023581 0.122107 -1.592577
2008-07-23 07:22:43 51°17.035 2°49.383 20.7215 0.02389 0.123755 -1.592577
2008-07-23 07:22:48 51°17.05 2°49.368 20.7105 0.02389 0.123755 -1.592577
2008-07-23 07:22:54 51°17.068 2°49.352 20.7246 0.023479 0.121683 -1.592577
2008-07-23 07:22:59 51°17.082 2°49.339 20.7259 0.022758 0.118019 -1.592577
2008-07-23 07:23:03 51°17.094 2°49.328 20.7192 0.023684 0.122754 -1.592577
2008-07-23 07:23:08 51°17.109 2°49.314 20.7068 0.025742 0.133314 -1.592577
2008-07-23 07:23:14 51°17.127 2°49.298 20.7247 0.025434 0.131722 -1.592577
2008-07-23 07:23:19 51°17.141 2°49.285 20.7127 0.025434 0.131722 -1.592577
2008-07-23 07:23:23 51°17.153 2°49.274 20.7384 0.025125 0.130054 -1.592577
2008-07-23 07:23:28 51°17.168 2°49.261 20.7375 0.024713 0.127907 -1.592577
2008-07-23 07:23:33 51°17.183 2°49.248 20.7373 0.023581 0.122096 -1.592577
2008-07-23 07:23:39 51°17.201 2°49.232 20.7289 0.02389 0.123658 -1.592577
2008-07-23 07:23:43 51°17.213 2°49.221 20.7439 0.025537 0.132108 -1.592577
2008-07-23 07:23:49 51°17.23 2°49.205 20.7282 0.025537 0.132108 -1.592577
2008-07-23 07:23:53 51°17.242 2°49.194 20.7167 0.024405 0.126327 -1.592577
2008-07-23 07:23:59 51°17.26 2°49.178 20.7387 0.024508 0.126835 -1.592577
2008-07-23 07:24:03 51°17.273 2°49.168 20.7348 0.023993 0.124366 -1.592577
2008-07-23 07:24:08 51°17.288 2°49.156 20.7153 0.024713 0.128084 -1.592577
2008-07-23 07:24:13 51°17.303 2°49.143 20.725 0.025537 0.132284 -1.592577
2008-07-23 07:24:18 51°17.318 2°49.131 20.7448 0.025537 0.132284 -1.592577
2008-07-23 07:24:23 51°17.333 2°49.119 20.7248 0.024199 0.125372 -1.592577
2008-07-23 07:24:29 51°17.352 2°49.104 20.7238 0.024816 0.128472 -1.592577
2008-07-23 07:24:34 51°17.367 2°49.092 20.7408 0.026977 0.139518 -1.592577
2008-07-23 07:24:39 51°17.382 2°49.08 20.7433 0.026051 0.134772 -1.592577
2008-07-23 07:24:43 51°17.394 2°49.07 20.7349 0.024199 0.125311 -1.592577
2008-07-23 07:24:48 51°17.409 2°49.058 20.7384 0.024199 0.125311 -1.592577
2008-07-23 07:24:54 51°17.428 2°49.044 20.7474 0.024816 0.128484 -1.592577
2008-07-23 07:24:59 51°17.443 2°49.032 20.7391 0.02389 0.123753 -1.592577
2008-07-23 07:25:03 51°17.455 2°49.022 20.7506 0.025742 0.133236 -1.592577
2008-07-23 07:25:08 51°17.47 2°49.009 20.7505 0.025845 0.133797 -1.592577
2008-07-23 07:25:14 51°17.488 2°48.994 20.7476 0.024611 0.127448 -1.592577
2008-07-23 07:25:19 51°17.504 2°48.982 20.7544 0.024611 0.127448 -1.592577
2008-07-23 07:25:23 51°17.515 2°48.971 20.7423 0.024302 0.125847 -1.592577
2008-07-23 07:25:28 51°17.531 2°48.958 20.7585 0.024302 0.125839 -1.592577
2008-07-23 07:25:33 51°17.546 2°48.945 20.7503 0.023993 0.124296 -1.592577
2008-07-23 07:25:39 51°17.563 2°48.93 20.7328 0.024405 0.1264 -1.592577
2008-07-23 07:25:43 51°17.575 2°48.919 20.7471 0.024096 0.124808 -1.592577
2008-07-23 07:25:47 51°17.587 2°48.909 20.7449 0.024096 0.124808 -1.592577
2008-07-23 07:25:53 51°17.606 2°48.893 20.7393 0.023376 0.121136 -1.592577
2008-07-23 07:25:59 51°17.624 2°48.878 20.7576 0.024816 0.128527 -1.592577
2008-07-23 07:26:03 51°17.636 2°48.867 20.7406 0.025022 0.129583 -1.592577
2008-07-23 07:26:08 51°17.65 2°48.854 20.7579 0.024919 0.129042 -1.592577
2008-07-23 07:26:13 51°17.665 2°48.84 20.7673 0.025434 0.131664 -1.592577
2008-07-23 07:26:18 51°17.68 2°48.827 20.7623 0.025434 0.131664 -1.592577
2008-07-23 07:26:23 51°17.695 2°48.814 20.7501 0.023787 0.123243 -1.592577
2008-07-23 07:26:28 51°17.71 2°48.799 20.7422 0.023787 0.123228 -1.592577
2008-07-23 07:26:34 51°17.727 2°48.783 20.7532 0.024405 0.126409 -1.592577
2008-07-23 07:26:39 51°17.742 2°48.769 20.7448 0.025948 0.134354 -1.592577
2008-07-23 07:26:43 51°17.754 2°48.758 20.7567 0.025948 0.134358 -1.592577
2008-07-23 07:26:49 51°17.772 2°48.741 20.7466 0.025948 0.134358 -1.592577
2008-07-23 07:26:53 51°17.783 2°48.729 20.7675 0.024919 0.129072 -1.592577
2008-07-23 07:26:59 51°17.801 2°48.712 20.768 0.024405 0.126421 -1.592577
2008-07-23 07:27:03 51°17.812 2°48.7 20.7639 0.024405 0.126417 -1.592577
2008-07-23 07:27:09 51°17.829 2°48.683 20.7642 0.024816 0.128556 -1.592577
2008-07-23 07:27:14 51°17.844 2°48.668 20.7733 0.025948 0.134376 -1.592577
2008-07-23 07:27:19 51°17.858 2°48.653 20.7501 0.025948 0.134376 -1.592577
2008-07-23 07:27:23 51°17.87 2°48.641 20.753 0.025948 0.134395 -1.592577
2008-07-23 07:27:28 51°17.884 2°48.626 20.7865 0.024096 0.124886 -1.592577
2008-07-23 07:27:33 51°17.898 2°48.611 20.758 0.025228 0.130667 -1.592577
2008-07-23 07:27:39 51°17.916 2°48.594 20.7647 0.025022 0.129611 -1.592577
2008-07-23 07:27:43 51°17.927 2°48.582 20.7719 0.023684 0.122766 -1.592577
2008-07-23 07:27:49 51°17.945 2°48.565 20.7858 0.023684 0.122766 -1.592577
2008-07-23 07:27:53 51°17.957 2°48.553 20.7709 0.024816 0.128537 -1.592577
2008-07-23 07:27:59 51°17.974 2°48.536 20.7788 0.023273 0.12063 -1.592577
2008-07-23 07:28:03 51°17.986 2°48.524 20.7823 0.023273 0.120632 -1.592577
2008-07-23 07:28:08 51°18 2°48.51 20.7838 0.023376 0.121147 -1.592577
2008-07-23 07:28:13 51°18.015 2°48.495 20.779 0.024611 0.127464 -1.592577
2008-07-23 07:28:18 51°18.03 2°48.48 20.7811 0.024611 0.127464 -1.592577
2008-07-23 07:28:23 51°18.045 2°48.466 20.7802 0.023581 0.122218 -1.592577
2008-07-23 07:28:28 51°18.06 2°48.452 20.7808 0.022655 0.117497 -1.592577
2008-07-23 07:28:33 51°18.074 2°48.438 20.78 0.022964 0.119074 -1.592577
2008-07-23 07:28:39 51°18.092 2°48.42 20.7769 0.024508 0.126992 -1.592577
2008-07-23 07:28:44 51°18.107 2°48.405 20.7648 0.024096 0.124882 -1.592577
2008-07-23 07:28:49 51°18.121 2°48.391 20.7857 0.024096 0.124882 -1.592577
2008-07-23 07:28:53 51°18.133 2°48.379 20.7784 0.02389 0.123817 -1.592577
2008-07-23 07:28:59 51°18.15 2°48.361 20.7929 0.023273 0.120663 -1.592577
2008-07-23 07:29:03 51°18.162 2°48.349 20.7873 0.024096 0.124875 -1.592577
2008-07-23 07:29:08 51°18.177 2°48.335 20.7963 0.023581 0.122257 -1.592577
2008-07-23 07:29:14 51°18.194 2°48.317 20.7882 0.02389 0.123836 -1.592577
2008-07-23 07:29:19 51°18.209 2°48.303 20.7891 0.02389 0.123836 -1.592577
2008-07-23 07:29:23 51°18.221 2°48.291 20.7731 0.023273 0.120661 -1.592577
2008-07-23 07:29:28 51°18.235 2°48.276 20.7803 0.024096 0.124856 -1.592577
2008-07-23 07:29:34 51°18.253 2°48.259 20.7834 0.023787 0.123282 -1.592577
2008-07-23 07:29:39 51°18.268 2°48.245 20.7798 0.023376 0.121188 -1.592577
2008-07-23 07:29:43 51°18.28 2°48.233 20.7906 0.023581 0.122248 -1.592577
2008-07-23 07:29:48 51°18.295 2°48.218 20.7841 0.023581 0.122248 -1.592577
2008-07-23 07:29:53 51°18.309 2°48.204 20.7831 0.022861 0.118581 -1.592577
2008-07-23 07:29:59 51°18.327 2°48.186 20.7824 0.02389 0.123847 -1.592577
2008-07-23 07:30:03 51°18.339 2°48.174 20.8025 0.023376 0.121235 -1.592577
2008-07-23 07:30:08 51°18.354 2°48.159 20.7879 0.022964 0.119131 -1.592577
2008-07-23 07:30:13 51°18.369 2°48.145 20.7969 0.023787 0.123331 -1.592577
2008-07-23 07:30:19 51°18.387 2°48.128 20.7969 0.023787 0.123331 -1.592577
2008-07-23 07:30:23 51°18.398 2°48.116 20.7897 0.023376 0.121208 -1.592577
2008-07-23 07:30:28 51°18.414 2°48.102 20.791 0.022861 0.118578 -1.592577
2008-07-23 07:30:33 51°18.428 2°48.088 20.7928 0.023684 0.122775 -1.592577
2008-07-23 07:30:38 51°18.443 2°48.074 20.7915 0.02389 0.123834 -1.592577
2008-07-23 07:30:43 51°18.458 2°48.06 20.7878 0.023067 0.119638 -1.592577
2008-07-23 07:30:49 51°18.476 2°48.043 20.8018 0.023067 0.119638 -1.592577
2008-07-23 07:30:53 51°18.488 2°48.032 20.8101 0.023479 0.121748 -1.592577
2008-07-23 07:30:59 51°18.506 2°48.015 20.8101 0.024302 0.125962 -1.592577
2008-07-23 07:31:04 51°18.521 2°48.001 20.7935 0.023479 0.121766 -1.592577
2008-07-23 07:31:09 51°18.536 2°47.987 20.8112 0.023684 0.122812 -1.592577
2008-07-23 07:31:14 51°18.551 2°47.973 20.8072 0.023479 0.121757 -1.592577
2008-07-23 07:31:19 51°18.565 2°47.959 20.8069 0.023479 0.121757 -1.592577
2008-07-23 07:31:23 51°18.577 2°47.947 20.8177 0.02389 0.123853 -1.592577
2008-07-23 07:31:28 51°18.592 2°47.933 20.8162 0.024302 0.125948 -1.592577
2008-07-23 07:31:33 51°18.607 2°47.919 20.8 0.023479 0.121744 -1.592577
2008-07-23 07:31:39 51°18.624 2°47.902 20.809 0.022758 0.118076 -1.592577
2008-07-23 07:31:43 51°18.636 2°47.891 20.814 0.022861 0.118597 -1.592577
2008-07-23 07:31:47 51°18.648 2°47.88 20.8195 0.022861 0.118597 -1.592577
2008-07-23 07:31:53 51°18.666 2°47.864 20.8212 0.023581 0.122272 -1.592577
2008-07-23 07:31:59 51°18.684 2°47.847 20.8026 0.02389 0.12386 -1.592577
2008-07-23 07:32:03 51°18.695 2°47.836 20.8116 0.023787 0.123336 -1.592577
2008-07-23 07:32:08 51°18.71 2°47.822 20.8196 0.022758 0.118073 -1.592577
2008-07-23 07:32:13 51°18.725 2°47.808 20.8175 0.022655 0.117544 -1.592577
2008-07-23 07:32:19 51°18.742 2°47.791 20.821 0.022655 0.117544 -1.592577
2008-07-23 07:32:23 51°18.754 2°47.78 20.8159 0.02245 0.11652 -1.592577
2008-07-23 07:32:28 51°18.769 2°47.766 20.8076 0.022141 0.114976 -1.592577
2008-07-23 07:32:33 51°18.783 2°47.753 20.8116 0.023787 0.123426 -1.592577
2008-07-23 07:32:39 51°18.801 2°47.736 20.8213 0.022861 0.11871 -1.592577
2008-07-23 07:32:43 51°18.813 2°47.725 20.8184 0.023376 0.121338 -1.592577
2008-07-23 07:32:49 51°18.83 2°47.709 20.8163 0.023376 0.121338 -1.592577
2008-07-23 07:32:53 51°18.842 2°47.698 20.812 0.022347 0.116076 -1.592577
2008-07-23 07:32:59 51°18.86 2°47.681 20.8149 0.023581 0.12236 -1.592577
2008-07-23 07:33:03 51°18.871 2°47.67 20.8325 0.023479 0.121818 -1.592577
2008-07-23 07:33:08 51°18.886 2°47.657 20.8316 0.022758 0.118126 -1.592577
2008-07-23 07:33:13 51°18.901 2°47.643 20.8273 0.022964 0.119169 -1.592577
2008-07-23 07:33:18 51°18.916 2°47.629 20.8307 0.022964 0.119169 -1.592577
2008-07-23 07:33:23 51°18.931 2°47.616 20.8344 0.023581 0.122316 -1.592577
2008-07-23 07:33:29 51°18.949 2°47.599 20.8361 0.023581 0.122318 -1.592577
2008-07-23 07:33:34 51°18.963 2°47.585 20.8314 0.022964 0.119167 -1.592577
2008-07-23 07:33:39 51°18.978 2°47.572 20.8185 0.023273 0.120735 -1.592577
2008-07-23 07:33:43 51°18.99 2°47.561 20.827 0.022655 0.117585 -1.592577
2008-07-23 07:33:48 51°19.006 2°47.55 20.8385 0.022655 0.117585 -1.592577
2008-07-23 07:33:54 51°19.024 2°47.537 20.8382 0.026463 0.137095 -1.592577
2008-07-23 07:33:59 51°19.04 2°47.528 20.8214 0.025125 0.130241 -1.592577
2008-07-23 07:34:03 51°19.053 2°47.52 20.8248 0.025845 0.133949 -1.592577
2008-07-23 07:34:08 51°19.069 2°47.511 20.8338 0.025537 0.132349 -1.592577
2008-07-23 07:34:14 51°19.088 2°47.501 20.8388 0.024405 0.126507 -1.592577
2008-07-23 07:34:19 51°19.104 2°47.492 20.8246 0.024405 0.126507 -1.592577
2008-07-23 07:34:23 51°19.117 2°47.486 20.8311 0.024713 0.128067 -1.592577
2008-07-23 07:34:28 51°19.134 2°47.477 20.8342 0.025228 0.130683 -1.592577
2008-07-23 07:34:33 51°19.15 2°47.469 20.8508 0.025537 0.13227 -1.592577
2008-07-23 07:34:39 51°19.17 2°47.459 20.8371 0.025022 0.12964 -1.592577
2008-07-23 07:34:43 51°19.183 2°47.452 20.8503 0.025845 0.133865 -1.592577
2008-07-23 07:34:48 51°19.199 2°47.444 20.8496 0.025845 0.133865 -1.592577
2008-07-23 07:34:53 51°19.216 2°47.436 20.8491 0.026051 0.134934 -1.592577
2008-07-23 07:34:59 51°19.236 2°47.426 20.8476 0.026257 0.136008 -1.592577
2008-07-23 07:35:03 51°19.249 2°47.42 20.8361 0.025537 0.132315 -1.592577
2008-07-23 07:35:09 51°19.268 2°47.41 20.8418 0.027183 0.140779 -1.592577
2008-07-23 07:35:13 51°19.282 2°47.403 20.8503 0.025228 0.130713 -1.592577
2008-07-23 07:35:19 51°19.301 2°47.393 20.8576 0.025228 0.130713 -1.592577
2008-07-23 07:35:24 51°19.318 2°47.384 20.8487 0.02564 0.132827 -1.592577
2008-07-23 07:35:29 51°19.334 2°47.375 20.8597 0.02564 0.132843 -1.592577
2008-07-23 07:35:34 51°19.35 2°47.367 20.8555 0.024713 0.128119 -1.592577
2008-07-23 07:35:39 51°19.367 2°47.358 20.8372 0.026051 0.13498 -1.592577
2008-07-23 07:35:43 51°19.38 2°47.35 20.8424 0.025845 0.13392 -1.592577
2008-07-23 07:35:48 51°19.397 2°47.342 20.859 0.025845 0.13392 -1.592577
2008-07-23 07:35:54 51°19.416 2°47.331 20.8629 0.025228 0.130739 -1.592577
2008-07-23 07:35:59 51°19.433 2°47.323 20.8557 0.024713 0.128094 -1.592577
2008-07-23 07:36:03 51°19.446 2°47.316 20.8479 0.024816 0.128621 -1.592577
2008-07-23 07:36:09 51°19.466 2°47.304 20.8696 0.024199 0.125466 -1.592577
2008-07-23 07:36:14 51°19.482 2°47.295 20.8527 0.023376 0.121259 -1.592577
2008-07-23 07:36:19 51°19.498 2°47.284 20.8563 0.023376 0.121259 -1.592577
2008-07-23 07:36:23 51°19.511 2°47.276 20.8672 0.024096 0.124941 -1.592577
2008-07-23 07:36:29 51°19.53 2°47.263 20.8666 0.023993 0.124418 -1.592577
2008-07-23 07:36:34 51°19.546 2°47.251 20.8679 0.023684 0.12284 -1.592577
2008-07-23 07:36:39 51°19.562 2°47.24 20.8508 0.025125 0.130221 -1.592577
2008-07-23 07:36:43 51°19.575 2°47.23 20.879 0.024508 0.127067 -1.592577
2008-07-23 07:36:48 51°19.59 2°47.218 20.8786 0.024508 0.127067 -1.592577
2008-07-23 07:36:53 51°19.606 2°47.205 20.8802 0.024611 0.127598 -1.592577
2008-07-23 07:36:59 51°19.624 2°47.189 20.8862 0.023787 0.123389 -1.592577
2008-07-23 07:37:03 51°19.636 2°47.178 20.871 0.024919 0.129188 -1.592577
2008-07-23 07:37:08 51°19.65 2°47.163 20.8649 0.023479 0.121799 -1.592577
2008-07-23 07:37:13 51°19.664 2°47.147 20.8621 0.024611 0.127579 -1.592577
2008-07-23 07:37:19 51°19.68 2°47.128 20.8755 0.024611 0.127579 -1.592577
2008-07-23 07:37:24 51°19.694 2°47.111 20.8563 0.023787 0.123357 -1.592577
2008-07-23 07:37:28 51°19.704 2°47.098 20.874 0.024302 0.125981 -1.592577
2008-07-23 07:37:34 51°19.721 2°47.078 20.877 0.023067 0.11966 -1.592577
2008-07-23 07:37:39 51°19.734 2°47.061 20.8588 0.025022 0.129646 -1.592577
2008-07-23 07:37:43 51°19.744 2°47.048 20.8676 0.024405 0.126498 -1.592577
2008-07-23 07:37:48 51°19.757 2°47.031 20.873 0.024405 0.126498 -1.592577
2008-07-23 07:37:53 51°19.771 2°47.013 20.8692 0.023479 0.121746 -1.592577
2008-07-23 07:37:59 51°19.786 2°46.993 20.8758 0.023684 0.122805 -1.592577
2008-07-23 07:38:03 51°19.797 2°46.979 20.8716 0.022964 0.119138 -1.592577
2008-07-23 07:38:09 51°19.812 2°46.958 20.8804 0.022552 0.117045 -1.592577
2008-07-23 07:38:13 51°19.823 2°46.945 20.8629 0.023684 0.122829 -1.592577
2008-07-23 07:38:19 51°19.839 2°46.925 20.875 0.023684 0.122829 -1.592577
2008-07-23 07:38:23 51°19.851 2°46.913 20.8734 0.022347 0.116008 -1.592577
2008-07-23 07:38:28 51°19.864 2°46.896 20.8846 0.023581 0.122323 -1.592577
2008-07-23 07:38:34 51°19.881 2°46.877 20.8822 0.023787 0.123392 -1.592577
2008-07-23 07:38:39 51°19.895 2°46.861 20.8946 0.023684 0.122879 -1.592577
2008-07-23 07:38:43 51°19.906 2°46.848 20.8972 0.025434 0.131864 -1.592577
2008-07-23 07:38:48 51°19.92 2°46.831 20.8929 0.025434 0.131864 -1.592577
2008-07-23 07:38:53 51°19.933 2°46.815 20.8969 0.025125 0.130261 -1.592577
2008-07-23 07:38:59 51°19.95 2°46.795 20.8964 0.02389 0.123924 -1.592577
2008-07-23 07:39:03 51°19.961 2°46.781 20.8916 0.023787 0.123407 -1.592577
2008-07-23 07:39:08 51°19.974 2°46.764 20.895 0.023273 0.120799 -1.592577
2008-07-23 07:39:13 51°19.988 2°46.747 20.8962 0.023993 0.12449 -1.592577
2008-07-23 07:39:19 51°20.005 2°46.728 20.8891 0.023993 0.12449 -1.592577
2008-07-23 07:39:23 51°20.016 2°46.714 20.8871 0.024405 0.126606 -1.592577
2008-07-23 07:39:29 51°20.032 2°46.694 20.8823 0.024302 0.126079 -1.592577
2008-07-23 07:39:33 51°20.043 2°46.681 20.8829 0.025434 0.131852 -1.592577
2008-07-23 07:39:39 51°20.06 2°46.661 20.8852 0.023581 0.122349 -1.592577
2008-07-23 07:39:43 51°20.071 2°46.647 20.9041 0.024096 0.124971 -1.592577
2008-07-23 07:39:48 51°20.085 2°46.63 20.9062 0.024096 0.124971 -1.592577
2008-07-23 07:39:53 51°20.099 2°46.614 20.894 0.024199 0.125504 -1.592577
2008-07-23 07:39:58 51°20.113 2°46.596 20.902 0.023376 0.121312 -1.592577
2008-07-23 07:40:03 51°20.127 2°46.58 20.9085 0.022552 0.117113 -1.592577
2008-07-23 07:40:09 51°20.143 2°46.56 20.9081 0.023684 0.122909 -1.592577
2008-07-23 07:40:13 51°20.154 2°46.546 20.9087 0.02389 0.123981 -1.592577
2008-07-23 07:40:19 51°20.171 2°46.526 20.8954 0.02389 0.123981 -1.592577
2008-07-23 07:40:24 51°20.185 2°46.508 20.8976 0.024405 0.126631 -1.592577
2008-07-23 07:40:28 51°20.196 2°46.494 20.9104 0.023376 0.121353 -1.592577
2008-07-23 07:40:34 51°20.212 2°46.473 20.9109 0.023684 0.122918 -1.592577
2008-07-23 07:40:39 51°20.226 2°46.456 20.8997 0.023067 0.119746 -1.592577
2008-07-23 07:40:43 51°20.237 2°46.442 20.9044 0.022655 0.117642 -1.592577
2008-07-23 07:40:49 51°20.253 2°46.422 20.9104 0.022655 0.117642 -1.592577
2008-07-23 07:40:53 51°20.265 2°46.408 20.9091 0.024611 0.127643 -1.592577
2008-07-23 07:40:59 51°20.282 2°46.389 20.9063 0.02389 0.123967 -1.592577
2008-07-23 07:41:03 51°20.293 2°46.376 20.8938 0.024199 0.125555 -1.592577
2008-07-23 07:41:08 51°20.307 2°46.359 20.8982 0.025537 0.132421 -1.592577
2008-07-23 07:41:13 51°20.322 2°46.342 20.9034 0.025125 0.130309 -1.592577
2008-07-23 07:41:19 51°20.338 2°46.322 20.9156 0.025125 0.130309 -1.592577
2008-07-23 07:41:23 51°20.349 2°46.308 20.905 0.023684 0.122911 -1.592577
2008-07-23 07:41:28 51°20.363 2°46.29 20.8994 0.023273 0.120808 -1.592577
2008-07-23 07:41:33 51°20.377 2°46.273 20.9067 0.023581 0.122409 -1.592577
2008-07-23 07:41:39 51°20.393 2°46.253 20.9149 0.022861 0.118717 -1.592577
2008-07-23 07:41:43 51°20.404 2°46.239 20.9155 0.022655 0.117659 -1.592577
2008-07-23 07:41:49 51°20.421 2°46.22 20.918 0.022655 0.117659 -1.592577
2008-07-23 07:41:53 51°20.433 2°46.207 20.9125 0.023273 0.120818 -1.592577
2008-07-23 07:41:59 51°20.45 2°46.188 20.9283 0.02389 0.123977 -1.592577
2008-07-23 07:42:03 51°20.461 2°46.175 20.9262 0.023581 0.122396 -1.592577
2008-07-23 07:42:08 51°20.475 2°46.16 20.9196 0.022655 0.117661 -1.592577
2008-07-23 07:42:13 51°20.49 2°46.144 20.9276 0.024508 0.127137 -1.592577
2008-07-23 07:42:18 51°20.505 2°46.129 20.9355 0.024508 0.127137 -1.592577
2008-07-23 07:42:23 51°20.519 2°46.114 20.9305 0.024919 0.129241 -1.592577
2008-07-23 07:42:29 51°20.537 2°46.096 20.9406 0.023273 0.120803 -1.592577
2008-07-23 07:42:34 51°20.552 2°46.081 20.9417 0.024199 0.125531 -1.592577
2008-07-23 07:42:39 51°20.567 2°46.066 20.9393 0.025022 0.129736 -1.592577
2008-07-23 07:42:43 51°20.579 2°46.055 20.9201 0.024919 0.129202 -1.592577
2008-07-23 07:42:49 51°20.597 2°46.037 20.9191 0.024919 0.129202 -1.592577
2008-07-23 07:42:53 51°20.609 2°46.026 20.9275 0.023684 0.122885 -1.592577
2008-07-23 07:42:59 51°20.627 2°46.009 20.9333 0.022655 0.11764 -1.592577
2008-07-23 07:43:03 51°20.639 2°45.998 20.9401 0.023067 0.119759 -1.592577
2008-07-23 07:43:09 51°20.657 2°45.981 20.9398 0.024199 0.12555 -1.592577
2008-07-23 07:43:14 51°20.672 2°45.967 20.9375 0.023581 0.122383 -1.592577
2008-07-23 07:43:19 51°20.687 2°45.953 20.9292 0.023581 0.122383 -1.592577
2008-07-23 07:43:23 51°20.7 2°45.942 20.922 0.023581 0.122388 -1.592577
2008-07-23 07:43:28 51°20.715 2°45.929 20.9348 0.024405 0.126617 -1.592577
2008-07-23 07:43:34 51°20.733 2°45.912 20.9461 0.025022 0.129783 -1.592577
2008-07-23 07:43:39 51°20.748 2°45.898 20.9302 0.023993 0.124496 -1.592577
2008-07-23 07:43:43 51°20.76 2°45.887 20.9306 0.024508 0.127127 -1.592577
2008-07-23 07:43:49 51°20.779 2°45.87 20.9475 0.024508 0.127127 -1.592577
2008-07-23 07:43:53 51°20.791 2°45.858 20.9438 0.024096 0.125011 -1.592577
2008-07-23 07:43:59 51°20.809 2°45.841 20.9529 0.022861 0.118699 -1.592577
2008-07-23 07:44:03 51°20.822 2°45.83 20.9507 0.024508 0.127118 -1.592577
2008-07-23 07:44:08 51°20.837 2°45.816 20.9499 0.02389 0.12396 -1.592577
2008-07-23 07:44:13 51°20.852 2°45.802 20.9513 0.024405 0.126577 -1.592577
2008-07-23 07:44:18 51°20.868 2°45.788 20.9583 0.024405 0.126577 -1.592577
2008-07-23 07:44:23 51°20.883 2°45.774 20.9634 0.026669 0.138205 -1.592577
2008-07-23 07:44:29 51°20.901 2°45.757 20.9561 0.025434 0.13186 -1.592577
2008-07-23 07:44:34 51°20.916 2°45.742 20.9622 0.023993 0.124475 -1.592577
2008-07-23 07:44:39 51°20.93 2°45.727 20.9612 0.023787 0.123428 -1.592577
2008-07-23 07:44:43 51°20.942 2°45.714 20.9558 0.024611 0.127645 -1.592577
2008-07-23 07:44:49 51°20.96 2°45.696 20.9642 0.024611 0.127645 -1.592577
2008-07-23 07:44:53 51°20.972 2°45.684 20.9523 0.025537 0.132412 -1.592577
2008-07-23 07:44:59 51°20.99 2°45.666 20.9416 0.023479 0.121862 -1.592577
2008-07-23 07:45:03 51°21.001 2°45.654 20.9536 0.024405 0.126598 -1.592577
2008-07-23 07:45:09 51°21.019 2°45.636 20.9501 0.023067 0.119755 -1.592577
2008-07-23 07:45:14 51°21.034 2°45.621 20.9449 0.024096 0.125025 -1.592577
2008-07-23 07:45:19 51°21.049 2°45.606 20.9561 0.024096 0.125025 -1.592577
2008-07-23 07:45:23 51°21.061 2°45.594 20.9682 0.023787 0.123448 -1.592577
2008-07-23 07:45:28 51°21.076 2°45.579 20.9615 0.024405 0.126608 -1.592577
2008-07-23 07:45:34 51°21.094 2°45.561 20.9721 0.022964 0.119235 -1.592577
2008-07-23 07:45:39 51°21.109 2°45.546 20.9537 0.025125 0.130313 -1.592577
2008-07-23 07:45:43 51°21.12 2°45.534 20.9657 0.023993 0.124517 -1.592577
2008-07-23 07:45:49 51°21.138 2°45.516 20.9732 0.023993 0.124517 -1.592577
2008-07-23 07:45:53 51°21.15 2°45.505 20.9579 0.024199 0.125575 -1.592577
2008-07-23 07:45:59 51°21.168 2°45.487 20.9519 0.022861 0.118738 -1.592577
2008-07-23 07:46:03 51°21.18 2°45.475 20.9518 0.023787 0.12348 -1.592577
2008-07-23 07:46:08 51°21.195 2°45.46 20.9637 0.024405 0.126648 -1.592577
2008-07-23 07:46:13 51°21.209 2°45.446 20.9712 0.023479 0.121892 -1.592577
2008-07-23 07:46:19 51°21.227 2°45.429 20.9634 0.023479 0.121892 -1.592577
2008-07-23 07:46:23 51°21.239 2°45.418 20.9619 0.023376 0.121356 -1.592577
2008-07-23 07:46:28 51°21.254 2°45.404 20.9554 0.024611 0.127678 -1.592577
2008-07-23 07:46:33 51°21.269 2°45.391 20.964 0.025331 0.131378 -1.592577
2008-07-23 07:46:39 51°21.286 2°45.374 20.9742 0.024096 0.125048 -1.592577
2008-07-23 07:46:44 51°21.301 2°45.361 20.9678 0.023067 0.119784 -1.592577
2008-07-23 07:46:49 51°21.316 2°45.347 20.9686 0.023067 0.119784 -1.592577
2008-07-23 07:46:53 51°21.328 2°45.337 20.9601 0.022964 0.119268 -1.592577
2008-07-23 07:46:59 51°21.346 2°45.32 20.9703 0.025434 0.131935 -1.592577
2008-07-23 07:47:03 51°21.358 2°45.31 20.9659 0.025537 0.132459 -1.592577
2008-07-23 07:47:08 51°21.373 2°45.296 20.9865 0.023993 0.12453 -1.592577
2008-07-23 07:47:14 51°21.392 2°45.28 20.9882 0.024713 0.128217 -1.592577
2008-07-23 07:47:19 51°21.407 2°45.266 20.9826 0.024713 0.128217 -1.592577
2008-07-23 07:47:23 51°21.419 2°45.255 20.9799 0.024302 0.126109 -1.592577
2008-07-23 07:47:29 51°21.437 2°45.239 20.985 0.024199 0.12558 -1.592577
2008-07-23 07:47:34 51°21.452 2°45.225 20.9825 0.026566 0.137746 -1.592577
2008-07-23 07:47:39 51°21.467 2°45.212 20.9864 0.024302 0.126104 -1.592577
2008-07-23 07:47:43 51°21.479 2°45.201 20.984 0.025125 0.130333 -1.592577
2008-07-23 07:47:48 51°21.494 2°45.187 20.9812 0.025125 0.130333 -1.592577
2008-07-23 07:47:54 51°21.512 2°45.171 20.973 0.024302 0.12614 -1.592577
2008-07-23 07:47:59 51°21.527 2°45.157 20.9787 0.024611 0.127729 -1.592577
2008-07-23 07:48:03 51°21.539 2°45.146 20.9763 0.024302 0.126134 -1.592577
2008-07-23 07:48:08 51°21.554 2°45.132 20.9781 0.024611 0.127717 -1.592577
2008-07-23 07:48:14 51°21.572 2°45.115 20.9908 0.023479 0.121921 -1.592577
2008-07-23 07:48:19 51°21.587 2°45.102 20.9909 0.023479 0.121921 -1.592577
2008-07-23 07:48:23 51°21.599 2°45.091 20.9926 0.02389 0.124045 -1.592577
2008-07-23 07:48:28 51°21.614 2°45.077 20.9803 0.024096 0.125131 -1.592577
2008-07-23 07:48:33 51°21.629 2°45.063 20.9958 0.023787 0.123554 -1.592577
2008-07-23 07:48:39 51°21.648 2°45.047 20.9969 0.024405 0.126708 -1.592577
2008-07-23 07:48:43 51°21.66 2°45.036 20.9966 0.026566 0.137801 -1.592577
2008-07-23 07:48:49 51°21.678 2°45.02 20.9875 0.026566 0.137801 -1.592577
2008-07-23 07:48:53 51°21.69 2°45.009 21.0004 0.02636 0.136712 -1.592577
2008-07-23 07:48:59 51°21.708 2°44.992 21.0065 0.025331 0.131396 -1.592577
2008-07-23 07:49:04 51°21.723 2°44.978 20.9996 0.024199 0.125603 -1.592577
2008-07-23 07:49:09 51°21.738 2°44.964 21.0031 0.024096 0.125093 -1.592577
2008-07-23 07:49:14 51°21.753 2°44.95 20.9953 0.022655 0.117723 -1.592577
2008-07-23 07:49:19 51°21.767 2°44.935 20.992 0.022655 0.117723 -1.592577
2008-07-23 07:49:23 51°21.779 2°44.923 21.0092 0.023273 0.120871 -1.592577
2008-07-23 07:49:28 51°21.794 2°44.909 20.9915 0.023581 0.122451 -1.592577
2008-07-23 07:49:34 51°21.812 2°44.891 21.009 0.025845 0.134069 -1.592577
2008-07-23 07:49:39 51°21.826 2°44.876 21.0095 0.024508 0.127201 -1.592577
2008-07-23 07:49:43 51°21.838 2°44.864 21.0139 0.024096 0.125078 -1.592577
2008-07-23 07:49:49 51°21.856 2°44.847 21.0172 0.024096 0.125078 -1.592577
2008-07-23 07:49:53 51°21.868 2°44.835 21.0194 0.02389 0.12402 -1.592577
2008-07-23 07:49:59 51°21.885 2°44.818 21.0076 0.025125 0.130343 -1.592577
2008-07-23 07:50:03 51°21.897 2°44.807 21.0041 0.024199 0.125588 -1.592577
2008-07-23 07:50:08 51°21.912 2°44.793 21.0178 0.023581 0.122438 -1.592577
2008-07-23 07:50:14 51°21.93 2°44.777 21.0141 0.02389 0.12402 -1.592577
2008-07-23 07:50:19 51°21.945 2°44.764 21.0178 0.02389 0.12402 -1.592577
2008-07-23 07:50:23 51°21.957 2°44.753 21.0152 0.023376 0.121375 -1.592577
2008-07-23 07:50:28 51°21.972 2°44.74 21.0121 0.023376 0.121364 -1.592577
2008-07-23 07:50:33 51°21.987 2°44.726 21.022 0.022655 0.117688 -1.592577
2008-07-23 07:50:39 51°22.006 2°44.71 21.0233 0.023273 0.120849 -1.592577
2008-07-23 07:50:43 51°22.018 2°44.7 21.0214 0.022758 0.118224 -1.592577
2008-07-23 07:50:48 51°22.033 2°44.686 21.0258 0.022758 0.118224 -1.592577
2008-07-23 07:50:53 51°22.048 2°44.673 21.0276 0.023376 0.121389 -1.592577
2008-07-23 07:50:59 51°22.066 2°44.657 21.0222 0.022758 0.118233 -1.592577
2008-07-23 07:51:04 51°22.081 2°44.643 21.0221 0.02389 0.124028 -1.592577
2008-07-23 07:51:09 51°22.096 2°44.63 21.0153 0.02317 0.120343 -1.592577
2008-07-23 07:51:13 51°22.108 2°44.619 21.0208 0.02317 0.120339 -1.592577
2008-07-23 07:51:19 51°22.127 2°44.603 21.0138 0.02317 0.120339 -1.592577
2008-07-23 07:51:23 51°22.139 2°44.592 21.0255 0.024199 0.125609 -1.592577
2008-07-23 07:51:28 51°22.154 2°44.579 21.0232 0.02317 0.120345 -1.592577
2008-07-23 07:51:34 51°22.172 2°44.563 21.0263 0.023479 0.121921 -1.592577
2008-07-23 07:51:39 51°22.187 2°44.549 21.0236 0.023787 0.123497 -1.592577
2008-07-23 07:51:43 51°22.199 2°44.538 21.0386 0.02317 0.120354 -1.592577
2008-07-23 07:51:49 51°22.217 2°44.522 21.0434 0.02317 0.120354 -1.592577
2008-07-23 07:51:54 51°22.232 2°44.508 21.0352 0.025022 0.129853 -1.592577
2008-07-23 07:51:59 51°22.247 2°44.494 21.032 0.023684 0.122984 -1.592577
2008-07-23 07:52:03 51°22.259 2°44.483 21.0211 0.024096 0.125088 -1.592577
2008-07-23 07:52:09 51°22.277 2°44.467 21.0239 0.024096 0.125086 -1.592577
2008-07-23 07:52:14 51°22.293 2°44.453 21.0363 0.023376 0.121397 -1.592577
2008-07-23 07:52:19 51°22.308 2°44.44 21.0453 0.023376 0.121397 -1.592577
2008-07-23 07:52:23 51°22.32 2°44.429 21.0341 0.023376 0.121395 -1.592577
2008-07-23 07:52:28 51°22.335 2°44.415 21.0479 0.022758 0.118243 -1.592577
2008-07-23 07:52:34 51°22.353 2°44.399 21.0482 0.023376 0.1214 -1.592577
2008-07-23 07:52:39 51°22.368 2°44.385 21.0516 0.022861 0.118774 -1.592577
2008-07-23 07:52:43 51°22.38 2°44.374 21.0426 0.024816 0.128789 -1.592577
2008-07-23 07:52:47 51°22.392 2°44.363 21.033 0.024816 0.128789 -1.592577
2008-07-23 07:52:54 51°22.414 2°44.344 21.0438 0.025331 0.131432 -1.592577
2008-07-23 07:52:59 51°22.429 2°44.331 21.0475 0.02389 0.12403 -1.592577
2008-07-23 07:53:03 51°22.44 2°44.319 21.0574 0.025125 0.130351 -1.592577
2008-07-23 07:53:07 51°22.452 2°44.308 21.0507 0.023273 0.120858 -1.592577
2008-07-23 07:53:14 51°22.473 2°44.288 21.049 0.02317 0.120335 -1.592577
2008-07-23 07:53:19 51°22.488 2°44.273 21.0519 0.02317 0.120335 -1.592577
2008-07-23 07:53:24 51°22.503 2°44.259 21.0512 0.02389 0.124022 -1.592577
2008-07-23 07:53:29 51°22.518 2°44.245 21.0568 0.026669 0.138295 -1.592577
2008-07-23 07:53:34 51°22.532 2°44.231 21.0636 0.024199 0.125601 -1.627401
2008-07-23 07:53:39 51°22.547 2°44.217 21.0563 0.023993 0.124541 -1.592577
2008-07-23 07:53:44 51°22.562 2°44.203 21.0638 0.023993 0.124538 -1.592577
2008-07-23 07:53:49 51°22.577 2°44.19 21.0649 0.023993 0.124538 -1.592577
2008-07-23 07:53:54 51°22.592 2°44.176 21.0529 0.024302 0.126113 -1.592577
2008-07-23 07:53:59 51°22.607 2°44.162 21.0633 0.023684 0.122952 -1.592577
2008-07-23 07:54:03 51°22.619 2°44.151 21.0668 0.023479 0.121899 -1.592577
2008-07-23 07:54:09 51°22.637 2°44.135 21.0699 0.023993 0.124555 -1.592577
2008-07-23 07:54:14 51°22.652 2°44.121 21.0592 0.022964 0.119298 -1.592577
2008-07-23 07:54:19 51°22.667 2°44.107 21.0527 0.022964 0.119298 -1.592577
2008-07-23 07:54:23 51°22.679 2°44.096 21.0466 0.022655 0.117714 -1.592577
2008-07-23 07:54:27 51°22.691 2°44.085 21.0683 0.024816 0.128775 -1.592577
2008-07-23 07:54:34 51°22.712 2°44.066 21.0769 0.024302 0.126144 -1.592577
2008-07-23 07:54:39 51°22.727 2°44.052 21.0667 0.024816 0.128783 -1.592577
2008-07-23 07:54:43 51°22.739 2°44.041 21.0606 0.023067 0.119817 -1.627401
2008-07-23 07:54:47 51°22.751 2°44.03 21.0736 0.023067 0.119817 -1.627401
2008-07-23 07:54:54 51°22.772 2°44.01 21.075 0.025948 0.134588 -1.592577
2008-07-23 07:54:59 51°22.786 2°43.997 21.0717 0.024713 0.128249 -1.592577
2008-07-23 07:55:03 51°22.798 2°43.985 21.0732 0.023993 0.124564 -1.592577
2008-07-23 07:55:07 51°22.81 2°43.974 21.0814 0.025022 0.129867 -1.592577
2008-07-23 07:55:14 51°22.83 2°43.954 21.0813 0.025845 0.134104 -1.592577
2008-07-23 07:55:19 51°22.845 2°43.94 21.0717 0.025845 0.134104 -1.592577
2008-07-23 07:55:24 51°22.86 2°43.926 21.0702 0.02389 0.12406 -1.592577
2008-07-23 07:55:27 51°22.869 2°43.917 21.0594 0.024713 0.128276 -1.592577
2008-07-23 07:55:34 51°22.89 2°43.898 21.0741 0.025434 0.131987 -1.592577
2008-07-23 07:55:39 51°22.905 2°43.883 21.0843 0.024096 0.125124 -1.592577
2008-07-23 07:55:44 51°22.919 2°43.87 21.0657 0.024508 0.127228 -1.592577
2008-07-23 07:55:49 51°22.934 2°43.855 21.0743 0.024508 0.127228 -1.592577
2008-07-23 07:55:54 51°22.949 2°43.841 21.0849 0.02564 0.133033 -1.592577
2008-07-23 07:55:59 51°22.964 2°43.827 21.0736 0.024919 0.129325 -1.592577
2008-07-23 07:56:03 51°22.975 2°43.815 21.0824 0.024302 0.126152 -1.592577
2008-07-23 07:56:09 51°22.993 2°43.798 21.0878 0.024199 0.125626 -1.592577
2008-07-23 07:56:14 51°23.007 2°43.783 21.0921 0.023273 0.120893 -1.592577
2008-07-23 07:56:19 51°23.022 2°43.769 21.0923 0.023273 0.120893 -1.592577
2008-07-23 07:56:23 51°23.034 2°43.757 21.0828 0.024302 0.126173 -1.592577
2008-07-23 07:56:29 51°23.051 2°43.739 21.0789 0.023581 0.122479 -1.592577
2008-07-23 07:56:34 51°23.066 2°43.725 21.0792 0.02389 0.124056 -1.592577
2008-07-23 07:56:39 51°23.081 2°43.71 21.0939 0.023684 0.123004 -1.592577
2008-07-23 07:56:43 51°23.092 2°43.699 21.0928 0.024096 0.125122 -1.592577
2008-07-23 07:56:49 51°23.11 2°43.681 21.0948 0.024096 0.125122 -1.592577
2008-07-23 07:56:54 51°23.124 2°43.666 21.0995 0.023581 0.122492 -1.592577
2008-07-23 07:56:59 51°23.139 2°43.651 21.1029 0.023376 0.121439 -1.592577
2008-07-23 07:57:03 51°23.15 2°43.638 21.1035 0.023993 0.124602 -1.592577
2008-07-23 07:57:07 51°23.162 2°43.626 21.0937 0.024816 0.12883 -1.592577
2008-07-23 07:57:14 51°23.181 2°43.604 21.0908 0.02389 0.124073 -1.592577
2008-07-23 07:57:19 51°23.196 2°43.587 21.1133 0.02389 0.124073 -1.592577
2008-07-23 07:57:23 51°23.207 2°43.575 21.1123 0.026566 0.137814 -1.592577
2008-07-23 07:57:27 51°23.218 2°43.562 21.1137 0.025537 0.13252 -1.592577
2008-07-23 07:57:34 51°23.237 2°43.537 21.1063 0.024508 0.127232 -1.592577
2008-07-23 07:57:39 51°23.25 2°43.52 21.1161 0.024302 0.126175 -1.592577
2008-07-23 07:57:44 51°23.263 2°43.501 21.0944 0.024096 0.125114 -1.592577
2008-07-23 07:57:47 51°23.271 2°43.489 21.1067 0.024096 0.125114 -1.592577
2008-07-23 07:57:54 51°23.289 2°43.463 21.1021 0.023479 0.121943 -1.592577
2008-07-23 07:57:59 51°23.301 2°43.443 21.1221 0.022964 0.119309 -1.592577
2008-07-23 07:58:04 51°23.314 2°43.424 21.1074 0.023787 0.123527 -1.592577
2008-07-23 07:58:09 51°23.327 2°43.404 21.1069 0.023067 0.119837 -1.592577
2008-07-23 07:58:14 51°23.34 2°43.385 21.1191 0.023581 0.122479 -1.592577
2008-07-23 07:58:19 51°23.352 2°43.366 21.1008 0.023581 0.122479 -1.592577
2008-07-23 07:58:24 51°23.365 2°43.346 21.114 0.02317 0.120397 -1.592577
2008-07-23 07:58:29 51°23.378 2°43.327 21.1194 0.02245 0.116724 -1.592577
2008-07-23 07:58:34 51°23.391 2°43.308 21.108 0.023067 0.119887 -1.592577
2008-07-23 07:58:39 51°23.403 2°43.288 21.1111 0.022655 0.117778 -1.592577
2008-07-23 07:58:43 51°23.414 2°43.273 21.1212 0.023067 0.119873 -1.592577
2008-07-23 07:58:49 51°23.43 2°43.25 21.1111 0.023067 0.119873 -1.592577
2008-07-23 07:58:54 51°23.442 2°43.231 21.1113 0.022861 0.118808 -1.592577
2008-07-23 07:58:59 51°23.456 2°43.213 21.1159 0.02245 0.116704 -1.592577
2008-07-23 07:59:03 51°23.466 2°43.198 21.1035 0.022552 0.117228 -1.592577
2008-07-23 07:59:07 51°23.477 2°43.182 21.1212 0.022347 0.116181 -1.592577
2008-07-23 07:59:14 51°23.495 2°43.157 21.1021 0.024199 0.125666 -1.592577
2008-07-23 07:59:19 51°23.508 2°43.137 21.1081 0.024199 0.125666 -1.592577
2008-07-23 07:59:23 51°23.519 2°43.123 21.1261 0.023993 0.124621 -1.592577
2008-07-23 07:59:27 51°23.529 2°43.108 21.1094 0.023581 0.122513 -1.592577
2008-07-23 07:59:34 51°23.548 2°43.082 21.119 0.025125 0.130419 -1.592577
2008-07-23 07:59:39 51°23.561 2°43.064 21.1243 0.02317 0.120388 -1.592577
2008-07-23 07:59:43 51°23.571 2°43.048 21.1319 0.023067 0.119858 -1.592577
2008-07-23 07:59:47 51°23.582 2°43.034 21.1335 0.023067 0.119858 -1.592577
2008-07-23 07:59:54 51°23.6 2°43.008 21.1329 0.024096 0.125147 -1.592577
2008-07-23 07:59:59 51°23.613 2°42.989 21.1106 0.022758 0.118306 -1.592577
2008-07-23 08:00:04 51°23.626 2°42.97 21.1138 0.024302 0.126217 -1.592577
2008-07-23 08:00:09 51°23.639 2°42.952 21.1146 0.023787 0.123589 -1.592577
2008-07-23 08:00:14 51°23.652 2°42.933 21.1279 0.023067 0.119897 -1.592577
2008-07-23 08:00:19 51°23.666 2°42.915 21.1228 0.023067 0.119897 -1.592577
2008-07-23 08:00:24 51°23.679 2°42.896 21.1242 0.023993 0.124631 -1.592577
2008-07-23 08:00:29 51°23.692 2°42.878 21.144 0.022758 0.118299 -1.592577
2008-07-23 08:00:34 51°23.705 2°42.859 21.1185 0.022861 0.118819 -1.592577
2008-07-23 08:00:39 51°23.718 2°42.84 21.1399 0.023787 0.12355 -1.592577
2008-07-23 08:00:44 51°23.731 2°42.821 21.1348 0.023273 0.120909 -1.592577
2008-07-23 08:00:49 51°23.744 2°42.802 21.1339 0.023273 0.120909 -1.592577
2008-07-23 08:00:54 51°23.757 2°42.784 21.1375 0.022964 0.119329 -1.592577
2008-07-23 08:00:59 51°23.77 2°42.765 21.136 0.023684 0.123006 -1.592577
2008-07-23 08:01:03 51°23.78 2°42.751 21.1459 0.024508 0.127222 -1.592577
2008-07-23 08:01:09 51°23.796 2°42.728 21.1482 0.024611 0.127752 -1.592577
2008-07-23 08:01:14 51°23.809 2°42.71 21.134 0.024611 0.127737 -1.592577
2008-07-23 08:01:19 51°23.822 2°42.691 21.1481 0.024611 0.127737 -1.592577
2008-07-23 08:01:23 51°23.832 2°42.676 21.1458 0.02317 0.120354 -1.592577
2008-07-23 08:01:29 51°23.848 2°42.654 21.1445 0.022861 0.118798 -1.592577
2008-07-23 08:01:34 51°23.861 2°42.634 21.1321 0.025125 0.130445 -1.592577
2008-07-23 08:01:39 51°23.873 2°42.615 21.1336 0.025845 0.134147 -1.592577
2008-07-23 08:01:43 51°23.884 2°42.6 21.1359 0.025125 0.130423 -1.592577
2008-07-23 08:01:47 51°23.894 2°42.585 21.1373 0.025125 0.130423 -1.592577
2008-07-23 08:01:54 51°23.912 2°42.559 21.1505 0.023684 0.12301 -1.592577
2008-07-23 08:01:59 51°23.925 2°42.541 21.1449 0.023787 0.123535 -1.592577
2008-07-23 08:02:04 51°23.939 2°42.522 21.1358 0.025845 0.1341 -1.592577
2008-07-23 08:02:07 51°23.947 2°42.512 21.1549 0.025331 0.131465 -1.592577
2008-07-23 08:02:14 51°23.966 2°42.487 21.1578 0.023684 0.123019 -1.592577
2008-07-23 08:02:19 51°23.979 2°42.469 21.1638 0.023684 0.123019 -1.592577
2008-07-23 08:02:24 51°23.992 2°42.451 21.1485 0.023684 0.123015 -1.592577
2008-07-23 08:02:29 51°24.006 2°42.433 21.1523 0.023581 0.122485 -1.592577
2008-07-23 08:02:34 51°24.019 2°42.414 21.1511 0.024405 0.1267 -1.592577
2008-07-23 08:02:39 51°24.032 2°42.396 21.1625 0.023067 0.119849 -1.592577
2008-07-23 08:02:44 51°24.045 2°42.378 21.1662 0.023684 0.123008 -1.592577
2008-07-23 08:02:49 51°24.059 2°42.36 21.1585 0.023684 0.123008 -1.592577
2008-07-23 08:02:54 51°24.072 2°42.343 21.1495 0.022861 0.118803 -1.592577
2008-07-23 08:02:59 51°24.086 2°42.325 21.1478 0.023479 0.121962 -1.592577
2008-07-23 08:03:04 51°24.1 2°42.308 21.182 0.025022 0.129879 -1.592577
2008-07-23 08:03:09 51°24.113 2°42.29 21.1735 0.024919 0.12936 -1.592577
2008-07-23 08:03:14 51°24.127 2°42.273 21.1751 0.023993 0.124593 -1.592577
2008-07-23 08:03:19 51°24.14 2°42.255 21.1745 0.023993 0.124593 -1.592577
2008-07-23 08:03:23 51°24.151 2°42.241 21.1638 0.024508 0.127224 -1.592577
2008-07-23 08:03:29 51°24.168 2°42.22 21.1669 0.024302 0.126179 -1.592577
2008-07-23 08:03:34 51°24.181 2°42.203 21.1693 0.023479 0.121966 -1.592577
2008-07-23 08:03:39 51°24.195 2°42.186 21.1827 0.022964 0.119332 -1.592577
2008-07-23 08:03:43 51°24.207 2°42.173 21.1721 0.024096 0.125133 -1.592577
2008-07-23 08:03:47 51°24.218 2°42.159 21.176 0.024096 0.125133 -1.592577
2008-07-23 08:03:54 51°24.237 2°42.137 21.1604 0.024405 0.126739 -1.592577
2008-07-23 08:03:59 51°24.252 2°42.12 21.1871 0.023684 0.123055 -1.592577
2008-07-23 08:04:03 51°24.263 2°42.107 21.1682 0.022861 0.118835 -1.592577
2008-07-23 08:04:08 51°24.277 2°42.09 21.1878 0.022552 0.117249 -1.592577
2008-07-23 08:04:13 51°24.291 2°42.073 21.1703 0.022964 0.11935 -1.592577
2008-07-23 08:04:19 51°24.308 2°42.053 21.1871 0.022964 0.11935 -1.592577
2008-07-23 08:04:23 51°24.319 2°42.04 21.1821 0.022964 0.119349 -1.592577
2008-07-23 08:04:29 51°24.336 2°42.02 21.1908 0.022861 0.118817 -1.592577
2008-07-23 08:04:33 51°24.347 2°42.008 21.1749 0.022552 0.117238 -1.592577
2008-07-23 08:04:39 51°24.364 2°41.987 21.1844 0.024199 0.125672 -1.592577
2008-07-23 08:04:44 51°24.378 2°41.971 21.1898 0.022964 0.119354 -1.592577
2008-07-23 08:04:48 51°24.389 2°41.957 21.1798 0.022964 0.119354 -1.592577
2008-07-23 08:04:54 51°24.406 2°41.938 21.1857 0.023376 0.12145 -1.592577
2008-07-23 08:04:59 51°24.42 2°41.921 21.1841 0.023684 0.123025 -1.592577
2008-07-23 08:05:03 51°24.431 2°41.908 21.1949 0.022655 0.117757 -1.592577
2008-07-23 08:05:09 51°24.448 2°41.888 21.1813 0.023787 0.123546 -1.592577
2008-07-23 08:05:14 51°24.461 2°41.87 21.2005 0.022552 0.117235 -1.592577
2008-07-23 08:05:19 51°24.475 2°41.853 21.1874 0.022552 0.117235 -1.592577
2008-07-23 08:05:23 51°24.486 2°41.839 21.1855 0.022758 0.118283 -1.592577
2008-07-23 08:05:29 51°24.502 2°41.818 21.1921 0.022244 0.115649 -1.592577
2008-07-23 08:05:34 51°24.516 2°41.801 21.1845 0.022347 0.116169 -1.592577
2008-07-23 08:05:39 51°24.529 2°41.783 21.1994 0.023376 0.121428 -1.592577
2008-07-23 08:05:43 51°24.54 2°41.77 21.1915 0.02245 0.116703 -1.592577
2008-07-23 08:05:47 51°24.551 2°41.756 21.1934 0.02245 0.116703 -1.592577
2008-07-23 08:05:54 51°24.57 2°41.732 21.1886 0.021935 0.114083 -1.592577
2008-07-23 08:05:59 51°24.584 2°41.715 21.1863 0.02245 0.116715 -1.592577
2008-07-23 08:06:03 51°24.595 2°41.701 21.1983 0.022964 0.119349 -1.592577
2008-07-23 08:06:07 51°24.606 2°41.688 21.2091 0.022861 0.118819 -1.592577
2008-07-23 08:06:14 51°24.625 2°41.665 21.2096 0.025331 0.131483 -1.592577
2008-07-23 08:06:19 51°24.639 2°41.649 21.1852 0.025331 0.131483 -1.592577
2008-07-23 08:06:23 51°24.651 2°41.636 21.1989 0.025331 0.131487 -1.592577
2008-07-23 08:06:27 51°24.662 2°41.624 21.1915 0.023993 0.124596 -1.592577
2008-07-23 08:06:34 51°24.681 2°41.6 21.2101 0.024302 0.126165 -1.592577
2008-07-23 08:06:39 51°24.695 2°41.583 21.2049 0.023376 0.12141 -1.592577
2008-07-23 08:06:44 51°24.709 2°41.566 21.2123 0.023581 0.122485 -1.592577
2008-07-23 08:06:47 51°24.717 2°41.557 21.2008 0.023581 0.122485 -1.592577
2008-07-23 08:06:54 51°24.736 2°41.532 21.2118 0.024302 0.126198 -1.592577
2008-07-23 08:06:59 51°24.749 2°41.515 21.2043 0.024096 0.125156 -1.592577
2008-07-23 08:07:03 51°24.761 2°41.502 21.2152 0.023479 0.121986 -1.592577
2008-07-23 08:07:09 51°24.777 2°41.482 21.2201 0.024713 0.128314 -1.592577
2008-07-23 08:07:14 51°24.791 2°41.465 21.2237 0.023787 0.12357 -1.592577
2008-07-23 08:07:19 51°24.805 2°41.449 21.1968 0.023787 0.12357 -1.592577
2008-07-23 08:07:24 51°24.819 2°41.432 21.2133 0.023376 0.12145 -1.592577
2008-07-23 08:07:29 51°24.833 2°41.417 21.2055 0.022964 0.119343 -1.592577
2008-07-23 08:07:34 51°24.846 2°41.4 21.2177 0.023273 0.120935 -1.592577
2008-07-23 08:07:39 51°24.861 2°41.383 21.2111 0.023581 0.122513 -1.592577
2008-07-23 08:07:43 51°24.872 2°41.37 21.2057 0.024713 0.128317 -1.592577
2008-07-23 08:07:49 51°24.889 2°41.35 21.2394 0.024713 0.128317 -1.592577
2008-07-23 08:07:54 51°24.903 2°41.334 21.2292 0.025125 0.130435 -1.592577
2008-07-23 08:07:59 51°24.916 2°41.317 21.237 0.024405 0.126743 -1.592577
2008-07-23 08:08:03 51°24.927 2°41.304 21.227 0.024816 0.128842 -1.592577
2008-07-23 08:08:09 51°24.943 2°41.283 21.214 0.024508 0.127246 -1.592577
2008-07-23 08:08:14 51°24.957 2°41.266 21.2206 0.023479 0.121969 -1.592577
2008-07-23 08:08:19 51°24.97 2°41.249 21.211 0.023479 0.121969 -1.592577
2008-07-23 08:08:23 51°24.981 2°41.235 21.2189 0.022964 0.119332 -1.592577
2008-07-23 08:08:27 51°24.993 2°41.223 21.2062 0.023479 0.121956 -1.592577
2008-07-23 08:08:34 51°25.012 2°41.2 21.234 0.02389 0.124064 -1.592577
2008-07-23 08:08:39 51°25.026 2°41.185 21.2324 0.02317 0.120386 -1.592577
2008-07-23 08:08:43 51°25.038 2°41.173 21.2267 0.022141 0.115132 -1.592577
2008-07-23 08:08:47 51°25.049 2°41.161 21.2263 0.022141 0.115132 -1.592577
2008-07-23 08:08:54 51°25.07 2°41.14 21.2204 0.02245 0.116711 -1.592577
2008-07-23 08:08:59 51°25.084 2°41.126 21.2449 0.025228 0.130956 -1.592577